<?xml version="1.0" encoding="UTF-8" standalone="no" ?>
<gpx xmlns="http://www.topografix.com/GPX/1/1" xmlns:xsi="http://www.w3.org/2001/XMLSchema-instance" xsi:schemaLocation="http://www.topografix.com/GPX/1/1 http://www.topografix.com/GPX/1/1/gpx.xsd" version="1.1" creator="VisuGPX - https://www.visugpx.com">
  <metadata>
    <name>D\'Estaing à la ferme des Bessoles après Golinhac</name>
    <desc><![CDATA[4eme jour, nous allons chez les Bufflonnes.]]></desc>
  </metadata>
  <trk>
    <name><![CDATA[Estaing - Ferme des Bessoles]]></name>
    <cmt><![CDATA[D'Estaing au gîte des Bessoles après Golinhac.]]></cmt>
    <trkseg>
      <trkpt lat="44.55333" lon="2.67204">
        <ele>316</ele>
        <time>2014-05-30T06:27:40Z</time>
      </trkpt>
      <trkpt lat="44.55333" lon="2.67204">
        <ele>357.3</ele>
        <time>2014-05-30T06:28:21Z</time>
      </trkpt>
      <trkpt lat="44.55304" lon="2.67194">
        <ele>372.7</ele>
        <time>2014-05-30T06:29:42Z</time>
      </trkpt>
      <trkpt lat="44.55283" lon="2.67198">
        <ele>374.8</ele>
        <time>2014-05-30T06:30:01Z</time>
      </trkpt>
      <trkpt lat="44.55265" lon="2.67202">
        <ele>375.3</ele>
        <time>2014-05-30T06:30:17Z</time>
      </trkpt>
      <trkpt lat="44.55246" lon="2.67203">
        <ele>375.3</ele>
        <time>2014-05-30T06:30:33Z</time>
      </trkpt>
      <trkpt lat="44.55236" lon="2.67208">
        <ele>374.1</ele>
        <time>2014-05-30T06:30:41Z</time>
      </trkpt>
      <trkpt lat="44.55236" lon="2.67208">
        <ele>374.1</ele>
        <time>2014-05-30T06:30:48Z</time>
      </trkpt>
      <trkpt lat="44.55236" lon="2.67208">
        <ele>374.1</ele>
        <time>2014-05-30T06:30:49Z</time>
      </trkpt>
      <trkpt lat="44.55224" lon="2.67195">
        <ele>374.4</ele>
        <time>2014-05-30T06:31:17Z</time>
      </trkpt>
      <trkpt lat="44.55215" lon="2.67185">
        <ele>368.7</ele>
        <time>2014-05-30T06:31:30Z</time>
      </trkpt>
      <trkpt lat="44.55215" lon="2.67185">
        <ele>368.7</ele>
        <time>2014-05-30T06:31:38Z</time>
      </trkpt>
      <trkpt lat="44.55215" lon="2.67185">
        <ele>368.7</ele>
        <time>2014-05-30T06:31:39Z</time>
      </trkpt>
      <trkpt lat="44.55193" lon="2.67155">
        <ele>369.5</ele>
        <time>2014-05-30T06:31:52Z</time>
      </trkpt>
      <trkpt lat="44.55177" lon="2.67144">
        <ele>371.2</ele>
        <time>2014-05-30T06:32:05Z</time>
      </trkpt>
      <trkpt lat="44.5516" lon="2.67134">
        <ele>374.3</ele>
        <time>2014-05-30T06:32:19Z</time>
      </trkpt>
      <trkpt lat="44.55146" lon="2.67126">
        <ele>373.9</ele>
        <time>2014-05-30T06:32:30Z</time>
      </trkpt>
      <trkpt lat="44.55132" lon="2.67125">
        <ele>371.8</ele>
        <time>2014-05-30T06:32:43Z</time>
      </trkpt>
      <trkpt lat="44.55118" lon="2.67125">
        <ele>372.3</ele>
        <time>2014-05-30T06:32:55Z</time>
      </trkpt>
      <trkpt lat="44.55103" lon="2.67132">
        <ele>370</ele>
        <time>2014-05-30T06:33:09Z</time>
      </trkpt>
      <trkpt lat="44.55082" lon="2.6714">
        <ele>370.1</ele>
        <time>2014-05-30T06:33:26Z</time>
      </trkpt>
      <trkpt lat="44.55071" lon="2.67143">
        <ele>368.7</ele>
        <time>2014-05-30T06:33:36Z</time>
      </trkpt>
      <trkpt lat="44.55046" lon="2.67137">
        <ele>368.4</ele>
        <time>2014-05-30T06:33:54Z</time>
      </trkpt>
      <trkpt lat="44.55029" lon="2.6713">
        <ele>364.1</ele>
        <time>2014-05-30T06:34:09Z</time>
      </trkpt>
      <trkpt lat="44.55018" lon="2.67125">
        <ele>366.4</ele>
        <time>2014-05-30T06:34:17Z</time>
      </trkpt>
      <trkpt lat="44.55004" lon="2.67121">
        <ele>364.9</ele>
        <time>2014-05-30T06:34:30Z</time>
      </trkpt>
      <trkpt lat="44.54994" lon="2.67116">
        <ele>373.4</ele>
        <time>2014-05-30T06:34:38Z</time>
      </trkpt>
      <trkpt lat="44.54976" lon="2.67116">
        <ele>378.8</ele>
        <time>2014-05-30T06:34:51Z</time>
      </trkpt>
      <trkpt lat="44.54963" lon="2.67125">
        <ele>380.5</ele>
        <time>2014-05-30T06:35:04Z</time>
      </trkpt>
      <trkpt lat="44.54947" lon="2.67137">
        <ele>381.1</ele>
        <time>2014-05-30T06:35:21Z</time>
      </trkpt>
      <trkpt lat="44.54928" lon="2.6715">
        <ele>386</ele>
        <time>2014-05-30T06:35:38Z</time>
      </trkpt>
      <trkpt lat="44.54916" lon="2.67155">
        <ele>392.3</ele>
        <time>2014-05-30T06:35:48Z</time>
      </trkpt>
      <trkpt lat="44.54916" lon="2.67155">
        <ele>392.3</ele>
        <time>2014-05-30T06:35:54Z</time>
      </trkpt>
      <trkpt lat="44.54916" lon="2.67155">
        <ele>392.3</ele>
        <time>2014-05-30T06:35:55Z</time>
      </trkpt>
      <trkpt lat="44.54904" lon="2.6716">
        <ele>400.1</ele>
        <time>2014-05-30T06:36:07Z</time>
      </trkpt>
      <trkpt lat="44.54892" lon="2.67162">
        <ele>403.2</ele>
        <time>2014-05-30T06:36:18Z</time>
      </trkpt>
      <trkpt lat="44.54873" lon="2.67164">
        <ele>408.8</ele>
        <time>2014-05-30T06:36:31Z</time>
      </trkpt>
      <trkpt lat="44.54865" lon="2.67166">
        <ele>410.3</ele>
        <time>2014-05-30T06:36:42Z</time>
      </trkpt>
      <trkpt lat="44.5485" lon="2.67169">
        <ele>409.4</ele>
        <time>2014-05-30T06:36:53Z</time>
      </trkpt>
      <trkpt lat="44.54833" lon="2.67168">
        <ele>410.8</ele>
        <time>2014-05-30T06:37:05Z</time>
      </trkpt>
      <trkpt lat="44.54812" lon="2.67164">
        <ele>408.2</ele>
        <time>2014-05-30T06:37:18Z</time>
      </trkpt>
      <trkpt lat="44.54793" lon="2.67155">
        <ele>407.4</ele>
        <time>2014-05-30T06:37:32Z</time>
      </trkpt>
      <trkpt lat="44.54779" lon="2.67144">
        <ele>406.7</ele>
        <time>2014-05-30T06:37:48Z</time>
      </trkpt>
      <trkpt lat="44.54769" lon="2.67134">
        <ele>404.4</ele>
        <time>2014-05-30T06:38:00Z</time>
      </trkpt>
      <trkpt lat="44.54761" lon="2.67124">
        <ele>402</ele>
        <time>2014-05-30T06:38:11Z</time>
      </trkpt>
      <trkpt lat="44.54749" lon="2.67111">
        <ele>407.5</ele>
        <time>2014-05-30T06:38:24Z</time>
      </trkpt>
      <trkpt lat="44.54741" lon="2.67105">
        <ele>401.7</ele>
        <time>2014-05-30T06:38:35Z</time>
      </trkpt>
      <trkpt lat="44.54729" lon="2.67086">
        <ele>403.6</ele>
        <time>2014-05-30T06:38:49Z</time>
      </trkpt>
      <trkpt lat="44.54718" lon="2.67063">
        <ele>410.3</ele>
        <time>2014-05-30T06:39:07Z</time>
      </trkpt>
      <trkpt lat="44.54713" lon="2.67061">
        <ele>410.2</ele>
        <time>2014-05-30T06:39:10Z</time>
      </trkpt>
      <trkpt lat="44.5471" lon="2.67055">
        <ele>406.1</ele>
        <time>2014-05-30T06:39:24Z</time>
      </trkpt>
      <trkpt lat="44.54707" lon="2.67047">
        <ele>405.7</ele>
        <time>2014-05-30T06:39:28Z</time>
      </trkpt>
      <trkpt lat="44.54707" lon="2.67034">
        <ele>398.3</ele>
        <time>2014-05-30T06:39:41Z</time>
      </trkpt>
      <trkpt lat="44.54712" lon="2.67016">
        <ele>388.4</ele>
        <time>2014-05-30T06:39:56Z</time>
      </trkpt>
      <trkpt lat="44.54717" lon="2.66997">
        <ele>388.3</ele>
        <time>2014-05-30T06:40:09Z</time>
      </trkpt>
      <trkpt lat="44.54714" lon="2.6697">
        <ele>387.6</ele>
        <time>2014-05-30T06:40:26Z</time>
      </trkpt>
      <trkpt lat="44.54714" lon="2.6697">
        <ele>387.6</ele>
        <time>2014-05-30T06:40:34Z</time>
      </trkpt>
      <trkpt lat="44.54714" lon="2.6697">
        <ele>387.6</ele>
        <time>2014-05-30T06:40:35Z</time>
      </trkpt>
      <trkpt lat="44.54714" lon="2.66951">
        <ele>384.1</ele>
        <time>2014-05-30T06:41:01Z</time>
      </trkpt>
      <trkpt lat="44.54714" lon="2.66951">
        <ele>384.1</ele>
        <time>2014-05-30T06:41:08Z</time>
      </trkpt>
      <trkpt lat="44.54714" lon="2.66951">
        <ele>384.1</ele>
        <time>2014-05-30T06:41:09Z</time>
      </trkpt>
      <trkpt lat="44.54715" lon="2.66931">
        <ele>382.1</ele>
        <time>2014-05-30T06:41:25Z</time>
      </trkpt>
      <trkpt lat="44.54712" lon="2.66918">
        <ele>378.7</ele>
        <time>2014-05-30T06:41:34Z</time>
      </trkpt>
      <trkpt lat="44.54712" lon="2.66918">
        <ele>378.7</ele>
        <time>2014-05-30T06:41:41Z</time>
      </trkpt>
      <trkpt lat="44.54712" lon="2.66918">
        <ele>378.7</ele>
        <time>2014-05-30T06:41:42Z</time>
      </trkpt>
      <trkpt lat="44.54707" lon="2.66904">
        <ele>379</ele>
        <time>2014-05-30T06:41:52Z</time>
      </trkpt>
      <trkpt lat="44.54709" lon="2.66871">
        <ele>379.3</ele>
        <time>2014-05-30T06:42:10Z</time>
      </trkpt>
      <trkpt lat="44.54709" lon="2.66853">
        <ele>374.7</ele>
        <time>2014-05-30T06:42:23Z</time>
      </trkpt>
      <trkpt lat="44.54702" lon="2.66823">
        <ele>368.1</ele>
        <time>2014-05-30T06:42:44Z</time>
      </trkpt>
      <trkpt lat="44.54698" lon="2.66808">
        <ele>372.2</ele>
        <time>2014-05-30T06:42:51Z</time>
      </trkpt>
      <trkpt lat="44.54693" lon="2.66802">
        <ele>370.7</ele>
        <time>2014-05-30T06:43:03Z</time>
      </trkpt>
      <trkpt lat="44.5469" lon="2.66786">
        <ele>367.7</ele>
        <time>2014-05-30T06:43:13Z</time>
      </trkpt>
      <trkpt lat="44.54691" lon="2.66758">
        <ele>370.7</ele>
        <time>2014-05-30T06:43:28Z</time>
      </trkpt>
      <trkpt lat="44.5469" lon="2.66735">
        <ele>375</ele>
        <time>2014-05-30T06:43:42Z</time>
      </trkpt>
      <trkpt lat="44.54698" lon="2.66721">
        <ele>375.8</ele>
        <time>2014-05-30T06:43:48Z</time>
      </trkpt>
      <trkpt lat="44.54701" lon="2.66716">
        <ele>374.9</ele>
        <time>2014-05-30T06:43:54Z</time>
      </trkpt>
      <trkpt lat="44.54704" lon="2.66696">
        <ele>369.6</ele>
        <time>2014-05-30T06:44:08Z</time>
      </trkpt>
      <trkpt lat="44.54708" lon="2.66677">
        <ele>366.7</ele>
        <time>2014-05-30T06:44:21Z</time>
      </trkpt>
      <trkpt lat="44.5471" lon="2.66655">
        <ele>362.9</ele>
        <time>2014-05-30T06:44:35Z</time>
      </trkpt>
      <trkpt lat="44.54722" lon="2.66628">
        <ele>363.3</ele>
        <time>2014-05-30T06:44:51Z</time>
      </trkpt>
      <trkpt lat="44.54734" lon="2.6662">
        <ele>368.8</ele>
        <time>2014-05-30T06:45:02Z</time>
      </trkpt>
      <trkpt lat="44.54754" lon="2.66607">
        <ele>370.9</ele>
        <time>2014-05-30T06:45:20Z</time>
      </trkpt>
      <trkpt lat="44.54764" lon="2.66599">
        <ele>370.2</ele>
        <time>2014-05-30T06:45:33Z</time>
      </trkpt>
      <trkpt lat="44.54785" lon="2.666">
        <ele>370.8</ele>
        <time>2014-05-30T06:45:52Z</time>
      </trkpt>
      <trkpt lat="44.54805" lon="2.66602">
        <ele>374.8</ele>
        <time>2014-05-30T06:46:08Z</time>
      </trkpt>
      <trkpt lat="44.54822" lon="2.66603">
        <ele>370.5</ele>
        <time>2014-05-30T06:46:23Z</time>
      </trkpt>
      <trkpt lat="44.5485" lon="2.66603">
        <ele>371.1</ele>
        <time>2014-05-30T06:46:44Z</time>
      </trkpt>
      <trkpt lat="44.5486" lon="2.66606">
        <ele>372.9</ele>
        <time>2014-05-30T06:46:55Z</time>
      </trkpt>
      <trkpt lat="44.5488" lon="2.66607">
        <ele>373.2</ele>
        <time>2014-05-30T06:47:09Z</time>
      </trkpt>
      <trkpt lat="44.5488" lon="2.66607">
        <ele>373.2</ele>
        <time>2014-05-30T06:47:14Z</time>
      </trkpt>
      <trkpt lat="44.5489" lon="2.66612">
        <ele>374.6</ele>
        <time>2014-05-30T06:47:19Z</time>
      </trkpt>
      <trkpt lat="44.54901" lon="2.66616">
        <ele>376.7</ele>
        <time>2014-05-30T06:47:26Z</time>
      </trkpt>
      <trkpt lat="44.54907" lon="2.66625">
        <ele>377.5</ele>
        <time>2014-05-30T06:47:38Z</time>
      </trkpt>
      <trkpt lat="44.54923" lon="2.66616">
        <ele>377.2</ele>
        <time>2014-05-30T06:47:50Z</time>
      </trkpt>
      <trkpt lat="44.54937" lon="2.66611">
        <ele>376.7</ele>
        <time>2014-05-30T06:47:59Z</time>
      </trkpt>
      <trkpt lat="44.54937" lon="2.66611">
        <ele>376.7</ele>
        <time>2014-05-30T06:48:06Z</time>
      </trkpt>
      <trkpt lat="44.5495" lon="2.66605">
        <ele>374</ele>
        <time>2014-05-30T06:48:11Z</time>
      </trkpt>
      <trkpt lat="44.5495" lon="2.66605">
        <ele>374</ele>
        <time>2014-05-30T06:48:16Z</time>
      </trkpt>
      <trkpt lat="44.5495" lon="2.66605">
        <ele>374</ele>
        <time>2014-05-30T06:48:17Z</time>
      </trkpt>
      <trkpt lat="44.54963" lon="2.66601">
        <ele>374.2</ele>
        <time>2014-05-30T06:48:23Z</time>
      </trkpt>
      <trkpt lat="44.54974" lon="2.66594">
        <ele>371.6</ele>
        <time>2014-05-30T06:48:34Z</time>
      </trkpt>
      <trkpt lat="44.54993" lon="2.6658">
        <ele>370.3</ele>
        <time>2014-05-30T06:48:51Z</time>
      </trkpt>
      <trkpt lat="44.55003" lon="2.66578">
        <ele>370.9</ele>
        <time>2014-05-30T06:48:58Z</time>
      </trkpt>
      <trkpt lat="44.55003" lon="2.66564">
        <ele>373.6</ele>
        <time>2014-05-30T06:49:11Z</time>
      </trkpt>
      <trkpt lat="44.55013" lon="2.66548">
        <ele>373.6</ele>
        <time>2014-05-30T06:49:23Z</time>
      </trkpt>
      <trkpt lat="44.55029" lon="2.66542">
        <ele>373.4</ele>
        <time>2014-05-30T06:49:38Z</time>
      </trkpt>
      <trkpt lat="44.5505" lon="2.6654">
        <ele>372.1</ele>
        <time>2014-05-30T06:49:49Z</time>
      </trkpt>
      <trkpt lat="44.5506" lon="2.66535">
        <ele>370.5</ele>
        <time>2014-05-30T06:49:59Z</time>
      </trkpt>
      <trkpt lat="44.5508" lon="2.66522">
        <ele>369.9</ele>
        <time>2014-05-30T06:50:19Z</time>
      </trkpt>
      <trkpt lat="44.55096" lon="2.66517">
        <ele>372.3</ele>
        <time>2014-05-30T06:50:29Z</time>
      </trkpt>
      <trkpt lat="44.55115" lon="2.66513">
        <ele>372.5</ele>
        <time>2014-05-30T06:50:41Z</time>
      </trkpt>
      <trkpt lat="44.55119" lon="2.66512">
        <ele>372.8</ele>
        <time>2014-05-30T06:50:43Z</time>
      </trkpt>
      <trkpt lat="44.55128" lon="2.66507">
        <ele>374.2</ele>
        <time>2014-05-30T06:50:56Z</time>
      </trkpt>
      <trkpt lat="44.55137" lon="2.66506">
        <ele>374.2</ele>
        <time>2014-05-30T06:51:08Z</time>
      </trkpt>
      <trkpt lat="44.55151" lon="2.665">
        <ele>372</ele>
        <time>2014-05-30T06:51:19Z</time>
      </trkpt>
      <trkpt lat="44.55166" lon="2.66495">
        <ele>374.3</ele>
        <time>2014-05-30T06:51:28Z</time>
      </trkpt>
      <trkpt lat="44.55174" lon="2.66486">
        <ele>374.8</ele>
        <time>2014-05-30T06:51:35Z</time>
      </trkpt>
      <trkpt lat="44.55182" lon="2.66469">
        <ele>372.4</ele>
        <time>2014-05-30T06:51:49Z</time>
      </trkpt>
      <trkpt lat="44.55196" lon="2.66451">
        <ele>368.6</ele>
        <time>2014-05-30T06:52:05Z</time>
      </trkpt>
      <trkpt lat="44.55222" lon="2.66441">
        <ele>365.7</ele>
        <time>2014-05-30T06:52:24Z</time>
      </trkpt>
      <trkpt lat="44.5523" lon="2.66429">
        <ele>364.2</ele>
        <time>2014-05-30T06:52:32Z</time>
      </trkpt>
      <trkpt lat="44.55243" lon="2.66415">
        <ele>361.3</ele>
        <time>2014-05-30T06:52:45Z</time>
      </trkpt>
      <trkpt lat="44.55246" lon="2.66406">
        <ele>361.1</ele>
        <time>2014-05-30T06:52:51Z</time>
      </trkpt>
      <trkpt lat="44.55266" lon="2.66394">
        <ele>360.2</ele>
        <time>2014-05-30T06:53:08Z</time>
      </trkpt>
      <trkpt lat="44.55281" lon="2.66385">
        <ele>361</ele>
        <time>2014-05-30T06:53:23Z</time>
      </trkpt>
      <trkpt lat="44.55297" lon="2.66374">
        <ele>369.2</ele>
        <time>2014-05-30T06:53:41Z</time>
      </trkpt>
      <trkpt lat="44.5531" lon="2.66358">
        <ele>371.3</ele>
        <time>2014-05-30T06:53:54Z</time>
      </trkpt>
      <trkpt lat="44.55324" lon="2.66347">
        <ele>370.6</ele>
        <time>2014-05-30T06:54:07Z</time>
      </trkpt>
      <trkpt lat="44.55336" lon="2.66333">
        <ele>374.2</ele>
        <time>2014-05-30T06:54:20Z</time>
      </trkpt>
      <trkpt lat="44.55349" lon="2.6632">
        <ele>378.9</ele>
        <time>2014-05-30T06:54:36Z</time>
      </trkpt>
      <trkpt lat="44.55369" lon="2.66303">
        <ele>376.7</ele>
        <time>2014-05-30T06:54:49Z</time>
      </trkpt>
      <trkpt lat="44.55382" lon="2.66299">
        <ele>375.2</ele>
        <time>2014-05-30T06:55:01Z</time>
      </trkpt>
      <trkpt lat="44.55398" lon="2.66286">
        <ele>372.6</ele>
        <time>2014-05-30T06:55:17Z</time>
      </trkpt>
      <trkpt lat="44.55417" lon="2.66267">
        <ele>371.5</ele>
        <time>2014-05-30T06:55:36Z</time>
      </trkpt>
      <trkpt lat="44.55435" lon="2.6626">
        <ele>368</ele>
        <time>2014-05-30T06:55:50Z</time>
      </trkpt>
      <trkpt lat="44.55435" lon="2.6626">
        <ele>368</ele>
        <time>2014-05-30T06:55:57Z</time>
      </trkpt>
      <trkpt lat="44.55435" lon="2.6626">
        <ele>368</ele>
        <time>2014-05-30T06:55:58Z</time>
      </trkpt>
      <trkpt lat="44.55457" lon="2.66251">
        <ele>369.8</ele>
        <time>2014-05-30T06:56:13Z</time>
      </trkpt>
      <trkpt lat="44.55467" lon="2.6625">
        <ele>371.1</ele>
        <time>2014-05-30T06:56:19Z</time>
      </trkpt>
      <trkpt lat="44.55476" lon="2.66244">
        <ele>371.4</ele>
        <time>2014-05-30T06:56:25Z</time>
      </trkpt>
      <trkpt lat="44.55486" lon="2.66241">
        <ele>375</ele>
        <time>2014-05-30T06:56:36Z</time>
      </trkpt>
      <trkpt lat="44.55491" lon="2.66241">
        <ele>376.5</ele>
        <time>2014-05-30T06:56:41Z</time>
      </trkpt>
      <trkpt lat="44.55498" lon="2.66237">
        <ele>377.8</ele>
        <time>2014-05-30T06:56:53Z</time>
      </trkpt>
      <trkpt lat="44.55513" lon="2.66217">
        <ele>380.1</ele>
        <time>2014-05-30T06:57:09Z</time>
      </trkpt>
      <trkpt lat="44.55524" lon="2.6621">
        <ele>378.4</ele>
        <time>2014-05-30T06:57:17Z</time>
      </trkpt>
      <trkpt lat="44.55541" lon="2.66195">
        <ele>378</ele>
        <time>2014-05-30T06:57:31Z</time>
      </trkpt>
      <trkpt lat="44.55548" lon="2.66187">
        <ele>377.5</ele>
        <time>2014-05-30T06:57:41Z</time>
      </trkpt>
      <trkpt lat="44.55561" lon="2.66179">
        <ele>378.7</ele>
        <time>2014-05-30T06:57:53Z</time>
      </trkpt>
      <trkpt lat="44.55577" lon="2.66164">
        <ele>377.5</ele>
        <time>2014-05-30T06:58:06Z</time>
      </trkpt>
      <trkpt lat="44.55577" lon="2.66164">
        <ele>377.5</ele>
        <time>2014-05-30T06:58:11Z</time>
      </trkpt>
      <trkpt lat="44.55577" lon="2.66164">
        <ele>377.5</ele>
        <time>2014-05-30T06:58:12Z</time>
      </trkpt>
      <trkpt lat="44.55592" lon="2.66164">
        <ele>375.6</ele>
        <time>2014-05-30T06:58:23Z</time>
      </trkpt>
      <trkpt lat="44.55601" lon="2.6616">
        <ele>376</ele>
        <time>2014-05-30T06:58:29Z</time>
      </trkpt>
      <trkpt lat="44.55603" lon="2.66159">
        <ele>375.6</ele>
        <time>2014-05-30T06:58:38Z</time>
      </trkpt>
      <trkpt lat="44.55624" lon="2.66156">
        <ele>367.4</ele>
        <time>2014-05-30T06:58:58Z</time>
      </trkpt>
      <trkpt lat="44.55631" lon="2.6615">
        <ele>367.2</ele>
        <time>2014-05-30T06:59:01Z</time>
      </trkpt>
      <trkpt lat="44.55635" lon="2.66148">
        <ele>365.4</ele>
        <time>2014-05-30T06:59:08Z</time>
      </trkpt>
      <trkpt lat="44.55656" lon="2.66142">
        <ele>366.9</ele>
        <time>2014-05-30T06:59:24Z</time>
      </trkpt>
      <trkpt lat="44.55671" lon="2.66136">
        <ele>367.3</ele>
        <time>2014-05-30T06:59:31Z</time>
      </trkpt>
      <trkpt lat="44.55686" lon="2.6613">
        <ele>370.1</ele>
        <time>2014-05-30T06:59:42Z</time>
      </trkpt>
      <trkpt lat="44.55698" lon="2.66129">
        <ele>368.7</ele>
        <time>2014-05-30T06:59:49Z</time>
      </trkpt>
      <trkpt lat="44.55708" lon="2.66126">
        <ele>368.8</ele>
        <time>2014-05-30T06:59:56Z</time>
      </trkpt>
      <trkpt lat="44.55723" lon="2.66116">
        <ele>369</ele>
        <time>2014-05-30T07:00:09Z</time>
      </trkpt>
      <trkpt lat="44.55733" lon="2.66112">
        <ele>366.9</ele>
        <time>2014-05-30T07:00:17Z</time>
      </trkpt>
      <trkpt lat="44.55754" lon="2.66106">
        <ele>374</ele>
        <time>2014-05-30T07:00:37Z</time>
      </trkpt>
      <trkpt lat="44.55778" lon="2.66098">
        <ele>371</ele>
        <time>2014-05-30T07:00:56Z</time>
      </trkpt>
      <trkpt lat="44.55797" lon="2.6609">
        <ele>372.7</ele>
        <time>2014-05-30T07:01:11Z</time>
      </trkpt>
      <trkpt lat="44.55797" lon="2.6609">
        <ele>372.7</ele>
        <time>2014-05-30T07:01:18Z</time>
      </trkpt>
      <trkpt lat="44.55797" lon="2.6609">
        <ele>372.7</ele>
        <time>2014-05-30T07:01:19Z</time>
      </trkpt>
      <trkpt lat="44.55812" lon="2.66088">
        <ele>372</ele>
        <time>2014-05-30T07:01:29Z</time>
      </trkpt>
      <trkpt lat="44.5582" lon="2.66082">
        <ele>371.7</ele>
        <time>2014-05-30T07:01:34Z</time>
      </trkpt>
      <trkpt lat="44.55832" lon="2.66082">
        <ele>372.5</ele>
        <time>2014-05-30T07:01:47Z</time>
      </trkpt>
      <trkpt lat="44.55842" lon="2.66079">
        <ele>370.7</ele>
        <time>2014-05-30T07:01:59Z</time>
      </trkpt>
      <trkpt lat="44.55852" lon="2.66075">
        <ele>371.6</ele>
        <time>2014-05-30T07:02:09Z</time>
      </trkpt>
      <trkpt lat="44.55866" lon="2.66065">
        <ele>373.7</ele>
        <time>2014-05-30T07:02:19Z</time>
      </trkpt>
      <trkpt lat="44.55879" lon="2.66063">
        <ele>369</ele>
        <time>2014-05-30T07:02:26Z</time>
      </trkpt>
      <trkpt lat="44.55894" lon="2.66055">
        <ele>371.7</ele>
        <time>2014-05-30T07:02:41Z</time>
      </trkpt>
      <trkpt lat="44.55909" lon="2.66053">
        <ele>374.4</ele>
        <time>2014-05-30T07:02:55Z</time>
      </trkpt>
      <trkpt lat="44.55909" lon="2.66053">
        <ele>374.4</ele>
        <time>2014-05-30T07:08:16Z</time>
      </trkpt>
      <trkpt lat="44.55931" lon="2.66043">
        <ele>372.9</ele>
        <time>2014-05-30T07:08:23Z</time>
      </trkpt>
      <trkpt lat="44.55945" lon="2.66035">
        <ele>376.3</ele>
        <time>2014-05-30T07:08:33Z</time>
      </trkpt>
      <trkpt lat="44.55948" lon="2.66034">
        <ele>373.3</ele>
        <time>2014-05-30T07:08:49Z</time>
      </trkpt>
      <trkpt lat="44.55974" lon="2.66019">
        <ele>375</ele>
        <time>2014-05-30T07:09:26Z</time>
      </trkpt>
      <trkpt lat="44.55986" lon="2.66015">
        <ele>373.8</ele>
        <time>2014-05-30T07:09:31Z</time>
      </trkpt>
      <trkpt lat="44.55998" lon="2.66012">
        <ele>373.3</ele>
        <time>2014-05-30T07:09:40Z</time>
      </trkpt>
      <trkpt lat="44.5603" lon="2.65994">
        <ele>374.1</ele>
        <time>2014-05-30T07:09:57Z</time>
      </trkpt>
      <trkpt lat="44.56035" lon="2.65992">
        <ele>372.3</ele>
        <time>2014-05-30T07:10:01Z</time>
      </trkpt>
      <trkpt lat="44.56046" lon="2.65986">
        <ele>373.9</ele>
        <time>2014-05-30T07:10:13Z</time>
      </trkpt>
      <trkpt lat="44.56058" lon="2.65979">
        <ele>376.4</ele>
        <time>2014-05-30T07:10:21Z</time>
      </trkpt>
      <trkpt lat="44.56075" lon="2.65969">
        <ele>373.8</ele>
        <time>2014-05-30T07:10:34Z</time>
      </trkpt>
      <trkpt lat="44.56087" lon="2.65959">
        <ele>370.6</ele>
        <time>2014-05-30T07:10:46Z</time>
      </trkpt>
      <trkpt lat="44.56102" lon="2.65949">
        <ele>367.9</ele>
        <time>2014-05-30T07:10:59Z</time>
      </trkpt>
      <trkpt lat="44.56121" lon="2.65937">
        <ele>366.5</ele>
        <time>2014-05-30T07:11:14Z</time>
      </trkpt>
      <trkpt lat="44.56136" lon="2.6593">
        <ele>369.1</ele>
        <time>2014-05-30T07:11:25Z</time>
      </trkpt>
      <trkpt lat="44.56152" lon="2.65922">
        <ele>371</ele>
        <time>2014-05-30T07:11:36Z</time>
      </trkpt>
      <trkpt lat="44.56168" lon="2.6592">
        <ele>370.9</ele>
        <time>2014-05-30T07:11:47Z</time>
      </trkpt>
      <trkpt lat="44.56188" lon="2.6592">
        <ele>374.7</ele>
        <time>2014-05-30T07:12:01Z</time>
      </trkpt>
      <trkpt lat="44.56204" lon="2.65917">
        <ele>374.9</ele>
        <time>2014-05-30T07:12:11Z</time>
      </trkpt>
      <trkpt lat="44.56225" lon="2.65917">
        <ele>371.4</ele>
        <time>2014-05-30T07:12:24Z</time>
      </trkpt>
      <trkpt lat="44.56239" lon="2.65917">
        <ele>373.3</ele>
        <time>2014-05-30T07:12:33Z</time>
      </trkpt>
      <trkpt lat="44.56259" lon="2.65912">
        <ele>371.1</ele>
        <time>2014-05-30T07:12:45Z</time>
      </trkpt>
      <trkpt lat="44.56277" lon="2.65912">
        <ele>372.8</ele>
        <time>2014-05-30T07:12:56Z</time>
      </trkpt>
      <trkpt lat="44.56291" lon="2.6591">
        <ele>372.1</ele>
        <time>2014-05-30T07:13:05Z</time>
      </trkpt>
      <trkpt lat="44.563" lon="2.65906">
        <ele>371.3</ele>
        <time>2014-05-30T07:13:11Z</time>
      </trkpt>
      <trkpt lat="44.56321" lon="2.659">
        <ele>373.2</ele>
        <time>2014-05-30T07:13:25Z</time>
      </trkpt>
      <trkpt lat="44.56327" lon="2.65898">
        <ele>373.1</ele>
        <time>2014-05-30T07:13:30Z</time>
      </trkpt>
      <trkpt lat="44.56341" lon="2.65898">
        <ele>374.9</ele>
        <time>2014-05-30T07:13:41Z</time>
      </trkpt>
      <trkpt lat="44.56355" lon="2.65893">
        <ele>377.5</ele>
        <time>2014-05-30T07:13:54Z</time>
      </trkpt>
      <trkpt lat="44.56368" lon="2.6589">
        <ele>378.6</ele>
        <time>2014-05-30T07:14:04Z</time>
      </trkpt>
      <trkpt lat="44.56392" lon="2.65885">
        <ele>380.7</ele>
        <time>2014-05-30T07:14:24Z</time>
      </trkpt>
      <trkpt lat="44.56406" lon="2.65879">
        <ele>374.5</ele>
        <time>2014-05-30T07:14:36Z</time>
      </trkpt>
      <trkpt lat="44.5642" lon="2.65872">
        <ele>377.5</ele>
        <time>2014-05-30T07:14:49Z</time>
      </trkpt>
      <trkpt lat="44.56417" lon="2.65848">
        <ele>374</ele>
        <time>2014-05-30T07:15:06Z</time>
      </trkpt>
      <trkpt lat="44.56403" lon="2.65827">
        <ele>377.4</ele>
        <time>2014-05-30T07:15:26Z</time>
      </trkpt>
      <trkpt lat="44.56391" lon="2.658">
        <ele>380.8</ele>
        <time>2014-05-30T07:15:46Z</time>
      </trkpt>
      <trkpt lat="44.56393" lon="2.65771">
        <ele>383.7</ele>
        <time>2014-05-30T07:16:04Z</time>
      </trkpt>
      <trkpt lat="44.56385" lon="2.6574">
        <ele>381.2</ele>
        <time>2014-05-30T07:16:24Z</time>
      </trkpt>
      <trkpt lat="44.56383" lon="2.65722">
        <ele>378.4</ele>
        <time>2014-05-30T07:16:37Z</time>
      </trkpt>
      <trkpt lat="44.5638" lon="2.65699">
        <ele>381.3</ele>
        <time>2014-05-30T07:16:52Z</time>
      </trkpt>
      <trkpt lat="44.56369" lon="2.65669">
        <ele>386.1</ele>
        <time>2014-05-30T07:17:11Z</time>
      </trkpt>
      <trkpt lat="44.56369" lon="2.65638">
        <ele>388.8</ele>
        <time>2014-05-30T07:17:27Z</time>
      </trkpt>
      <trkpt lat="44.56375" lon="2.65621">
        <ele>388.3</ele>
        <time>2014-05-30T07:17:39Z</time>
      </trkpt>
      <trkpt lat="44.56369" lon="2.65597">
        <ele>388</ele>
        <time>2014-05-30T07:17:55Z</time>
      </trkpt>
      <trkpt lat="44.56369" lon="2.65574">
        <ele>392.2</ele>
        <time>2014-05-30T07:18:09Z</time>
      </trkpt>
      <trkpt lat="44.56374" lon="2.65552">
        <ele>394.9</ele>
        <time>2014-05-30T07:18:26Z</time>
      </trkpt>
      <trkpt lat="44.56374" lon="2.65552">
        <ele>394.9</ele>
        <time>2014-05-30T07:18:31Z</time>
      </trkpt>
      <trkpt lat="44.56374" lon="2.65552">
        <ele>394.9</ele>
        <time>2014-05-30T07:18:32Z</time>
      </trkpt>
      <trkpt lat="44.56371" lon="2.65525">
        <ele>390.6</ele>
        <time>2014-05-30T07:18:54Z</time>
      </trkpt>
      <trkpt lat="44.56375" lon="2.65512">
        <ele>389.5</ele>
        <time>2014-05-30T07:19:06Z</time>
      </trkpt>
      <trkpt lat="44.56383" lon="2.65497">
        <ele>391.2</ele>
        <time>2014-05-30T07:19:19Z</time>
      </trkpt>
      <trkpt lat="44.5639" lon="2.6549">
        <ele>389.1</ele>
        <time>2014-05-30T07:19:27Z</time>
      </trkpt>
      <trkpt lat="44.56406" lon="2.65471">
        <ele>389.8</ele>
        <time>2014-05-30T07:19:43Z</time>
      </trkpt>
      <trkpt lat="44.56417" lon="2.65451">
        <ele>390.9</ele>
        <time>2014-05-30T07:19:57Z</time>
      </trkpt>
      <trkpt lat="44.56419" lon="2.65423">
        <ele>386.8</ele>
        <time>2014-05-30T07:20:13Z</time>
      </trkpt>
      <trkpt lat="44.56426" lon="2.65404">
        <ele>385.6</ele>
        <time>2014-05-30T07:20:24Z</time>
      </trkpt>
      <trkpt lat="44.56436" lon="2.65378">
        <ele>386</ele>
        <time>2014-05-30T07:20:41Z</time>
      </trkpt>
      <trkpt lat="44.56394" lon="2.65324">
        <ele>383.7</ele>
        <time>2014-05-30T07:22:45Z</time>
      </trkpt>
      <trkpt lat="44.56366" lon="2.65302">
        <ele>382.8</ele>
        <time>2014-05-30T07:23:22Z</time>
      </trkpt>
      <trkpt lat="44.56359" lon="2.65266">
        <ele>381.1</ele>
        <time>2014-05-30T07:23:48Z</time>
      </trkpt>
      <trkpt lat="44.56352" lon="2.65243">
        <ele>382</ele>
        <time>2014-05-30T07:23:54Z</time>
      </trkpt>
      <trkpt lat="44.56359" lon="2.65225">
        <ele>380.9</ele>
        <time>2014-05-30T07:24:03Z</time>
      </trkpt>
      <trkpt lat="44.5636" lon="2.65203">
        <ele>380</ele>
        <time>2014-05-30T07:24:16Z</time>
      </trkpt>
      <trkpt lat="44.56357" lon="2.65181">
        <ele>381.5</ele>
        <time>2014-05-30T07:24:28Z</time>
      </trkpt>
      <trkpt lat="44.56357" lon="2.65151">
        <ele>383</ele>
        <time>2014-05-30T07:24:44Z</time>
      </trkpt>
      <trkpt lat="44.56364" lon="2.65139">
        <ele>384.9</ele>
        <time>2014-05-30T07:24:52Z</time>
      </trkpt>
      <trkpt lat="44.56368" lon="2.65125">
        <ele>386.2</ele>
        <time>2014-05-30T07:24:57Z</time>
      </trkpt>
      <trkpt lat="44.56376" lon="2.65106">
        <ele>388.3</ele>
        <time>2014-05-30T07:25:07Z</time>
      </trkpt>
      <trkpt lat="44.56386" lon="2.65092">
        <ele>389.4</ele>
        <time>2014-05-30T07:25:18Z</time>
      </trkpt>
      <trkpt lat="44.56385" lon="2.65064">
        <ele>387.5</ele>
        <time>2014-05-30T07:25:35Z</time>
      </trkpt>
      <trkpt lat="44.56386" lon="2.65036">
        <ele>383.8</ele>
        <time>2014-05-30T07:25:52Z</time>
      </trkpt>
      <trkpt lat="44.56386" lon="2.65014">
        <ele>387.3</ele>
        <time>2014-05-30T07:26:05Z</time>
      </trkpt>
      <trkpt lat="44.56382" lon="2.64982">
        <ele>386.9</ele>
        <time>2014-05-30T07:26:23Z</time>
      </trkpt>
      <trkpt lat="44.56373" lon="2.64962">
        <ele>391.2</ele>
        <time>2014-05-30T07:26:37Z</time>
      </trkpt>
      <trkpt lat="44.56364" lon="2.64942">
        <ele>391.5</ele>
        <time>2014-05-30T07:26:52Z</time>
      </trkpt>
      <trkpt lat="44.56358" lon="2.64946">
        <ele>385.9</ele>
        <time>2014-05-30T07:27:03Z</time>
      </trkpt>
      <trkpt lat="44.5635" lon="2.64946">
        <ele>384.3</ele>
        <time>2014-05-30T07:27:07Z</time>
      </trkpt>
      <trkpt lat="44.56351" lon="2.64944">
        <ele>384.8</ele>
        <time>2014-05-30T07:27:14Z</time>
      </trkpt>
      <trkpt lat="44.5636" lon="2.6493">
        <ele>381.6</ele>
        <time>2014-05-30T07:27:45Z</time>
      </trkpt>
      <trkpt lat="44.5636" lon="2.6493">
        <ele>381.6</ele>
        <time>2014-05-30T07:27:54Z</time>
      </trkpt>
      <trkpt lat="44.5636" lon="2.6493">
        <ele>381.6</ele>
        <time>2014-05-30T07:27:55Z</time>
      </trkpt>
      <trkpt lat="44.56354" lon="2.64954">
        <ele>372.6</ele>
        <time>2014-05-30T07:28:07Z</time>
      </trkpt>
      <trkpt lat="44.56357" lon="2.6496">
        <ele>371.7</ele>
        <time>2014-05-30T07:28:13Z</time>
      </trkpt>
      <trkpt lat="44.5636" lon="2.64972">
        <ele>372.3</ele>
        <time>2014-05-30T07:28:23Z</time>
      </trkpt>
      <trkpt lat="44.5636" lon="2.64972">
        <ele>372.3</ele>
        <time>2014-05-30T07:28:28Z</time>
      </trkpt>
      <trkpt lat="44.5636" lon="2.64972">
        <ele>372.3</ele>
        <time>2014-05-30T07:28:29Z</time>
      </trkpt>
      <trkpt lat="44.56369" lon="2.64988">
        <ele>378.7</ele>
        <time>2014-05-30T07:28:43Z</time>
      </trkpt>
      <trkpt lat="44.5638" lon="2.65">
        <ele>375.5</ele>
        <time>2014-05-30T07:29:01Z</time>
      </trkpt>
      <trkpt lat="44.56384" lon="2.65015">
        <ele>382.5</ele>
        <time>2014-05-30T07:29:17Z</time>
      </trkpt>
      <trkpt lat="44.56396" lon="2.65037">
        <ele>378</ele>
        <time>2014-05-30T07:29:39Z</time>
      </trkpt>
      <trkpt lat="44.56401" lon="2.65045">
        <ele>375.8</ele>
        <time>2014-05-30T07:29:50Z</time>
      </trkpt>
      <trkpt lat="44.56397" lon="2.65004">
        <ele>389.4</ele>
        <time>2014-05-30T07:31:51Z</time>
      </trkpt>
      <trkpt lat="44.56397" lon="2.64994">
        <ele>391.2</ele>
        <time>2014-05-30T07:32:02Z</time>
      </trkpt>
      <trkpt lat="44.56397" lon="2.64991">
        <ele>392.8</ele>
        <time>2014-05-30T07:32:10Z</time>
      </trkpt>
      <trkpt lat="44.56389" lon="2.64965">
        <ele>395.7</ele>
        <time>2014-05-30T07:32:47Z</time>
      </trkpt>
      <trkpt lat="44.56389" lon="2.64965">
        <ele>395.7</ele>
        <time>2014-05-30T07:32:54Z</time>
      </trkpt>
      <trkpt lat="44.56389" lon="2.64965">
        <ele>395.7</ele>
        <time>2014-05-30T07:32:55Z</time>
      </trkpt>
      <trkpt lat="44.5639" lon="2.64942">
        <ele>396.9</ele>
        <time>2014-05-30T07:33:30Z</time>
      </trkpt>
      <trkpt lat="44.56393" lon="2.64935">
        <ele>398.4</ele>
        <time>2014-05-30T07:33:37Z</time>
      </trkpt>
      <trkpt lat="44.5639" lon="2.64942">
        <ele>396.9</ele>
        <time>2014-05-30T07:33:46Z</time>
      </trkpt>
      <trkpt lat="44.56408" lon="2.6492">
        <ele>408.4</ele>
        <time>2014-05-30T07:36:56Z</time>
      </trkpt>
      <trkpt lat="44.56408" lon="2.64903">
        <ele>408.9</ele>
        <time>2014-05-30T07:37:10Z</time>
      </trkpt>
      <trkpt lat="44.56403" lon="2.64891">
        <ele>405.5</ele>
        <time>2014-05-30T07:37:20Z</time>
      </trkpt>
      <trkpt lat="44.56403" lon="2.6488">
        <ele>408.6</ele>
        <time>2014-05-30T07:37:29Z</time>
      </trkpt>
      <trkpt lat="44.56402" lon="2.64866">
        <ele>412.9</ele>
        <time>2014-05-30T07:37:42Z</time>
      </trkpt>
      <trkpt lat="44.564" lon="2.6484">
        <ele>417</ele>
        <time>2014-05-30T07:38:02Z</time>
      </trkpt>
      <trkpt lat="44.564" lon="2.6484">
        <ele>417</ele>
        <time>2014-05-30T07:38:09Z</time>
      </trkpt>
      <trkpt lat="44.56409" lon="2.64824">
        <ele>422.1</ele>
        <time>2014-05-30T07:38:14Z</time>
      </trkpt>
      <trkpt lat="44.56407" lon="2.64804">
        <ele>422.7</ele>
        <time>2014-05-30T07:38:30Z</time>
      </trkpt>
      <trkpt lat="44.56406" lon="2.64788">
        <ele>417.9</ele>
        <time>2014-05-30T07:38:42Z</time>
      </trkpt>
      <trkpt lat="44.56403" lon="2.64773">
        <ele>425.9</ele>
        <time>2014-05-30T07:38:53Z</time>
      </trkpt>
      <trkpt lat="44.56404" lon="2.64752">
        <ele>425.3</ele>
        <time>2014-05-30T07:39:07Z</time>
      </trkpt>
      <trkpt lat="44.56404" lon="2.64745">
        <ele>427.3</ele>
        <time>2014-05-30T07:39:14Z</time>
      </trkpt>
      <trkpt lat="44.564" lon="2.64746">
        <ele>429.7</ele>
        <time>2014-05-30T07:39:22Z</time>
      </trkpt>
      <trkpt lat="44.56397" lon="2.64707">
        <ele>428.8</ele>
        <time>2014-05-30T07:39:58Z</time>
      </trkpt>
      <trkpt lat="44.56397" lon="2.64707">
        <ele>428.8</ele>
        <time>2014-05-30T07:40:04Z</time>
      </trkpt>
      <trkpt lat="44.56395" lon="2.64695">
        <ele>425.9</ele>
        <time>2014-05-30T07:40:11Z</time>
      </trkpt>
      <trkpt lat="44.56398" lon="2.64664">
        <ele>427</ele>
        <time>2014-05-30T07:40:32Z</time>
      </trkpt>
      <trkpt lat="44.56399" lon="2.64637">
        <ele>432.9</ele>
        <time>2014-05-30T07:40:51Z</time>
      </trkpt>
      <trkpt lat="44.56396" lon="2.6462">
        <ele>434.8</ele>
        <time>2014-05-30T07:41:06Z</time>
      </trkpt>
      <trkpt lat="44.56396" lon="2.6462">
        <ele>434.8</ele>
        <time>2014-05-30T07:41:13Z</time>
      </trkpt>
      <trkpt lat="44.56391" lon="2.64601">
        <ele>436.2</ele>
        <time>2014-05-30T07:41:26Z</time>
      </trkpt>
      <trkpt lat="44.56385" lon="2.64583">
        <ele>437.9</ele>
        <time>2014-05-30T07:41:43Z</time>
      </trkpt>
      <trkpt lat="44.56375" lon="2.64544">
        <ele>440.7</ele>
        <time>2014-05-30T07:42:23Z</time>
      </trkpt>
      <trkpt lat="44.56369" lon="2.64528">
        <ele>441.5</ele>
        <time>2014-05-30T07:42:39Z</time>
      </trkpt>
      <trkpt lat="44.56393" lon="2.64549">
        <ele>448.8</ele>
        <time>2014-05-30T07:43:39Z</time>
      </trkpt>
      <trkpt lat="44.56393" lon="2.64549">
        <ele>448.8</ele>
        <time>2014-05-30T07:43:46Z</time>
      </trkpt>
      <trkpt lat="44.56393" lon="2.64549">
        <ele>448.8</ele>
        <time>2014-05-30T07:43:47Z</time>
      </trkpt>
      <trkpt lat="44.56392" lon="2.64525">
        <ele>455.6</ele>
        <time>2014-05-30T07:44:39Z</time>
      </trkpt>
      <trkpt lat="44.56387" lon="2.64518">
        <ele>456.6</ele>
        <time>2014-05-30T07:44:47Z</time>
      </trkpt>
      <trkpt lat="44.56385" lon="2.64512">
        <ele>455.5</ele>
        <time>2014-05-30T07:44:52Z</time>
      </trkpt>
      <trkpt lat="44.56385" lon="2.64508">
        <ele>454.7</ele>
        <time>2014-05-30T07:44:58Z</time>
      </trkpt>
      <trkpt lat="44.56407" lon="2.64493">
        <ele>457.1</ele>
        <time>2014-05-30T07:46:07Z</time>
      </trkpt>
      <trkpt lat="44.56413" lon="2.64472">
        <ele>458.1</ele>
        <time>2014-05-30T07:46:24Z</time>
      </trkpt>
      <trkpt lat="44.56414" lon="2.64469">
        <ele>457.7</ele>
        <time>2014-05-30T07:46:26Z</time>
      </trkpt>
      <trkpt lat="44.56414" lon="2.64454">
        <ele>461.6</ele>
        <time>2014-05-30T07:46:39Z</time>
      </trkpt>
      <trkpt lat="44.5641" lon="2.64434">
        <ele>462.2</ele>
        <time>2014-05-30T07:46:54Z</time>
      </trkpt>
      <trkpt lat="44.56411" lon="2.64421">
        <ele>464.5</ele>
        <time>2014-05-30T07:47:06Z</time>
      </trkpt>
      <trkpt lat="44.56405" lon="2.64379">
        <ele>473.3</ele>
        <time>2014-05-30T07:47:45Z</time>
      </trkpt>
      <trkpt lat="44.56407" lon="2.64374">
        <ele>474.7</ele>
        <time>2014-05-30T07:47:52Z</time>
      </trkpt>
      <trkpt lat="44.56407" lon="2.64373">
        <ele>475.7</ele>
        <time>2014-05-30T07:48:01Z</time>
      </trkpt>
      <trkpt lat="44.56431" lon="2.64397">
        <ele>484.2</ele>
        <time>2014-05-30T07:48:35Z</time>
      </trkpt>
      <trkpt lat="44.56447" lon="2.64406">
        <ele>485.8</ele>
        <time>2014-05-30T07:48:51Z</time>
      </trkpt>
      <trkpt lat="44.56456" lon="2.6441">
        <ele>486.2</ele>
        <time>2014-05-30T07:49:04Z</time>
      </trkpt>
      <trkpt lat="44.56463" lon="2.64418">
        <ele>489.4</ele>
        <time>2014-05-30T07:49:14Z</time>
      </trkpt>
      <trkpt lat="44.56468" lon="2.64421">
        <ele>489.3</ele>
        <time>2014-05-30T07:49:31Z</time>
      </trkpt>
      <trkpt lat="44.56486" lon="2.64455">
        <ele>504.9</ele>
        <time>2014-05-30T07:50:23Z</time>
      </trkpt>
      <trkpt lat="44.56494" lon="2.64471">
        <ele>501.3</ele>
        <time>2014-05-30T07:50:39Z</time>
      </trkpt>
      <trkpt lat="44.565" lon="2.64431">
        <ele>507.6</ele>
        <time>2014-05-30T07:52:26Z</time>
      </trkpt>
      <trkpt lat="44.56497" lon="2.64417">
        <ele>508.1</ele>
        <time>2014-05-30T07:52:38Z</time>
      </trkpt>
      <trkpt lat="44.56493" lon="2.64395">
        <ele>511.6</ele>
        <time>2014-05-30T07:52:56Z</time>
      </trkpt>
      <trkpt lat="44.56493" lon="2.64395">
        <ele>511.6</ele>
        <time>2014-05-30T07:53:04Z</time>
      </trkpt>
      <trkpt lat="44.56493" lon="2.64395">
        <ele>511.6</ele>
        <time>2014-05-30T07:53:05Z</time>
      </trkpt>
      <trkpt lat="44.56496" lon="2.64415">
        <ele>516</ele>
        <time>2014-05-30T07:53:34Z</time>
      </trkpt>
      <trkpt lat="44.56506" lon="2.64441">
        <ele>516.4</ele>
        <time>2014-05-30T07:53:49Z</time>
      </trkpt>
      <trkpt lat="44.56514" lon="2.64458">
        <ele>515.5</ele>
        <time>2014-05-30T07:54:05Z</time>
      </trkpt>
      <trkpt lat="44.5652" lon="2.64477">
        <ele>517.1</ele>
        <time>2014-05-30T07:54:21Z</time>
      </trkpt>
      <trkpt lat="44.56522" lon="2.64493">
        <ele>524.1</ele>
        <time>2014-05-30T07:54:37Z</time>
      </trkpt>
      <trkpt lat="44.56522" lon="2.64493">
        <ele>524.1</ele>
        <time>2014-05-30T07:54:45Z</time>
      </trkpt>
      <trkpt lat="44.56522" lon="2.64493">
        <ele>524.1</ele>
        <time>2014-05-30T07:54:46Z</time>
      </trkpt>
      <trkpt lat="44.56528" lon="2.64509">
        <ele>517.2</ele>
        <time>2014-05-30T07:54:54Z</time>
      </trkpt>
      <trkpt lat="44.56532" lon="2.64519">
        <ele>514.1</ele>
        <time>2014-05-30T07:55:00Z</time>
      </trkpt>
      <trkpt lat="44.56536" lon="2.64536">
        <ele>518.3</ele>
        <time>2014-05-30T07:55:13Z</time>
      </trkpt>
      <trkpt lat="44.56536" lon="2.64496">
        <ele>522.1</ele>
        <time>2014-05-30T07:55:47Z</time>
      </trkpt>
      <trkpt lat="44.56537" lon="2.64476">
        <ele>523.7</ele>
        <time>2014-05-30T07:56:03Z</time>
      </trkpt>
      <trkpt lat="44.56537" lon="2.64476">
        <ele>451</ele>
        <time>2014-05-30T07:57:01Z</time>
      </trkpt>
      <trkpt lat="44.56537" lon="2.64476">
        <ele>451</ele>
        <time>2014-05-30T07:57:03Z</time>
      </trkpt>
      <trkpt lat="44.56527" lon="2.6448">
        <ele>451</ele>
        <time>2014-05-30T08:14:15Z</time>
      </trkpt>
      <trkpt lat="44.56527" lon="2.6448">
        <ele>545.1</ele>
        <time>2014-05-30T08:14:18Z</time>
      </trkpt>
      <trkpt lat="44.56533" lon="2.64452">
        <ele>521.2</ele>
        <time>2014-05-30T08:16:49Z</time>
      </trkpt>
      <trkpt lat="44.56533" lon="2.64452">
        <ele>521.2</ele>
        <time>2014-05-30T08:16:56Z</time>
      </trkpt>
      <trkpt lat="44.56528" lon="2.6444">
        <ele>521.6</ele>
        <time>2014-05-30T08:17:01Z</time>
      </trkpt>
      <trkpt lat="44.56524" lon="2.64415">
        <ele>519.3</ele>
        <time>2014-05-30T08:17:20Z</time>
      </trkpt>
      <trkpt lat="44.56522" lon="2.64394">
        <ele>526.4</ele>
        <time>2014-05-30T08:17:39Z</time>
      </trkpt>
      <trkpt lat="44.5652" lon="2.64368">
        <ele>521</ele>
        <time>2014-05-30T08:17:56Z</time>
      </trkpt>
      <trkpt lat="44.56512" lon="2.64345">
        <ele>521.6</ele>
        <time>2014-05-30T08:18:15Z</time>
      </trkpt>
      <trkpt lat="44.56495" lon="2.6432">
        <ele>524.4</ele>
        <time>2014-05-30T08:18:46Z</time>
      </trkpt>
      <trkpt lat="44.56492" lon="2.64315">
        <ele>523.6</ele>
        <time>2014-05-30T08:18:50Z</time>
      </trkpt>
      <trkpt lat="44.56487" lon="2.6432">
        <ele>525.6</ele>
        <time>2014-05-30T08:18:56Z</time>
      </trkpt>
      <trkpt lat="44.56474" lon="2.64306">
        <ele>528.7</ele>
        <time>2014-05-30T08:19:13Z</time>
      </trkpt>
      <trkpt lat="44.56469" lon="2.64299">
        <ele>532.5</ele>
        <time>2014-05-30T08:19:20Z</time>
      </trkpt>
      <trkpt lat="44.56462" lon="2.64289">
        <ele>534.6</ele>
        <time>2014-05-30T08:19:32Z</time>
      </trkpt>
      <trkpt lat="44.56455" lon="2.6427">
        <ele>537.4</ele>
        <time>2014-05-30T08:19:51Z</time>
      </trkpt>
      <trkpt lat="44.56436" lon="2.64244">
        <ele>542.8</ele>
        <time>2014-05-30T08:20:11Z</time>
      </trkpt>
      <trkpt lat="44.56426" lon="2.64229">
        <ele>541.7</ele>
        <time>2014-05-30T08:20:27Z</time>
      </trkpt>
      <trkpt lat="44.56424" lon="2.64208">
        <ele>543.4</ele>
        <time>2014-05-30T08:20:42Z</time>
      </trkpt>
      <trkpt lat="44.56417" lon="2.64182">
        <ele>542.7</ele>
        <time>2014-05-30T08:21:00Z</time>
      </trkpt>
      <trkpt lat="44.56424" lon="2.64155">
        <ele>546.4</ele>
        <time>2014-05-30T08:21:18Z</time>
      </trkpt>
      <trkpt lat="44.56427" lon="2.64134">
        <ele>550.2</ele>
        <time>2014-05-30T08:21:31Z</time>
      </trkpt>
      <trkpt lat="44.56437" lon="2.64112">
        <ele>554.1</ele>
        <time>2014-05-30T08:21:48Z</time>
      </trkpt>
      <trkpt lat="44.56441" lon="2.64092">
        <ele>556.6</ele>
        <time>2014-05-30T08:22:02Z</time>
      </trkpt>
      <trkpt lat="44.56443" lon="2.64072">
        <ele>557.8</ele>
        <time>2014-05-30T08:22:19Z</time>
      </trkpt>
      <trkpt lat="44.56452" lon="2.64055">
        <ele>558.1</ele>
        <time>2014-05-30T08:22:33Z</time>
      </trkpt>
      <trkpt lat="44.56456" lon="2.64037">
        <ele>559.7</ele>
        <time>2014-05-30T08:22:49Z</time>
      </trkpt>
      <trkpt lat="44.56456" lon="2.64016">
        <ele>558.9</ele>
        <time>2014-05-30T08:23:11Z</time>
      </trkpt>
      <trkpt lat="44.56485" lon="2.63979">
        <ele>564</ele>
        <time>2014-05-30T08:23:37Z</time>
      </trkpt>
      <trkpt lat="44.56485" lon="2.63979">
        <ele>564</ele>
        <time>2014-05-30T08:23:42Z</time>
      </trkpt>
      <trkpt lat="44.56494" lon="2.63971">
        <ele>564.9</ele>
        <time>2014-05-30T08:23:45Z</time>
      </trkpt>
      <trkpt lat="44.56506" lon="2.63953">
        <ele>565.1</ele>
        <time>2014-05-30T08:24:00Z</time>
      </trkpt>
      <trkpt lat="44.56516" lon="2.63924">
        <ele>569.1</ele>
        <time>2014-05-30T08:24:20Z</time>
      </trkpt>
      <trkpt lat="44.56516" lon="2.63898">
        <ele>571.2</ele>
        <time>2014-05-30T08:24:36Z</time>
      </trkpt>
      <trkpt lat="44.5652" lon="2.63874">
        <ele>576.5</ele>
        <time>2014-05-30T08:24:53Z</time>
      </trkpt>
      <trkpt lat="44.56517" lon="2.6385">
        <ele>574.5</ele>
        <time>2014-05-30T08:25:08Z</time>
      </trkpt>
      <trkpt lat="44.56518" lon="2.6383">
        <ele>574.3</ele>
        <time>2014-05-30T08:25:21Z</time>
      </trkpt>
      <trkpt lat="44.56518" lon="2.63812">
        <ele>575.2</ele>
        <time>2014-05-30T08:25:34Z</time>
      </trkpt>
      <trkpt lat="44.56516" lon="2.63788">
        <ele>577</ele>
        <time>2014-05-30T08:25:51Z</time>
      </trkpt>
      <trkpt lat="44.56518" lon="2.63761">
        <ele>577.3</ele>
        <time>2014-05-30T08:26:10Z</time>
      </trkpt>
      <trkpt lat="44.56523" lon="2.63742">
        <ele>579.7</ele>
        <time>2014-05-30T08:26:24Z</time>
      </trkpt>
      <trkpt lat="44.56524" lon="2.63739">
        <ele>579.5</ele>
        <time>2014-05-30T08:26:27Z</time>
      </trkpt>
      <trkpt lat="44.56523" lon="2.63742">
        <ele>579.7</ele>
        <time>2014-05-30T08:26:35Z</time>
      </trkpt>
      <trkpt lat="44.5653" lon="2.63718">
        <ele>580.5</ele>
        <time>2014-05-30T08:26:54Z</time>
      </trkpt>
      <trkpt lat="44.5653" lon="2.63718">
        <ele>580.5</ele>
        <time>2014-05-30T08:26:59Z</time>
      </trkpt>
      <trkpt lat="44.5653" lon="2.63718">
        <ele>580.5</ele>
        <time>2014-05-30T08:27:00Z</time>
      </trkpt>
      <trkpt lat="44.56523" lon="2.63699">
        <ele>587.2</ele>
        <time>2014-05-30T08:27:19Z</time>
      </trkpt>
      <trkpt lat="44.56524" lon="2.63678">
        <ele>588.1</ele>
        <time>2014-05-30T08:27:33Z</time>
      </trkpt>
      <trkpt lat="44.56522" lon="2.63667">
        <ele>590.3</ele>
        <time>2014-05-30T08:27:44Z</time>
      </trkpt>
      <trkpt lat="44.56522" lon="2.63667">
        <ele>590.3</ele>
        <time>2014-05-30T08:27:51Z</time>
      </trkpt>
      <trkpt lat="44.56519" lon="2.63646">
        <ele>590</ele>
        <time>2014-05-30T08:28:03Z</time>
      </trkpt>
      <trkpt lat="44.56522" lon="2.63634">
        <ele>591.5</ele>
        <time>2014-05-30T08:28:17Z</time>
      </trkpt>
      <trkpt lat="44.56521" lon="2.63635">
        <ele>592.1</ele>
        <time>2014-05-30T08:28:26Z</time>
      </trkpt>
      <trkpt lat="44.56523" lon="2.63596">
        <ele>599.1</ele>
        <time>2014-05-30T08:31:00Z</time>
      </trkpt>
      <trkpt lat="44.5652" lon="2.63576">
        <ele>598.2</ele>
        <time>2014-05-30T08:31:15Z</time>
      </trkpt>
      <trkpt lat="44.56514" lon="2.63559">
        <ele>599.2</ele>
        <time>2014-05-30T08:31:33Z</time>
      </trkpt>
      <trkpt lat="44.565" lon="2.63521">
        <ele>603.9</ele>
        <time>2014-05-30T08:32:11Z</time>
      </trkpt>
      <trkpt lat="44.56493" lon="2.63504">
        <ele>607.5</ele>
        <time>2014-05-30T08:32:27Z</time>
      </trkpt>
      <trkpt lat="44.56484" lon="2.63483">
        <ele>611.3</ele>
        <time>2014-05-30T08:32:49Z</time>
      </trkpt>
      <trkpt lat="44.56475" lon="2.63456">
        <ele>611.6</ele>
        <time>2014-05-30T08:33:13Z</time>
      </trkpt>
      <trkpt lat="44.56468" lon="2.63438">
        <ele>610.9</ele>
        <time>2014-05-30T08:33:29Z</time>
      </trkpt>
      <trkpt lat="44.56461" lon="2.63419">
        <ele>612.5</ele>
        <time>2014-05-30T08:33:45Z</time>
      </trkpt>
      <trkpt lat="44.56462" lon="2.63405">
        <ele>610.3</ele>
        <time>2014-05-30T08:33:51Z</time>
      </trkpt>
      <trkpt lat="44.56455" lon="2.63396">
        <ele>616</ele>
        <time>2014-05-30T08:34:06Z</time>
      </trkpt>
      <trkpt lat="44.56449" lon="2.63381">
        <ele>615.4</ele>
        <time>2014-05-30T08:34:18Z</time>
      </trkpt>
      <trkpt lat="44.56447" lon="2.63372">
        <ele>615.4</ele>
        <time>2014-05-30T08:34:25Z</time>
      </trkpt>
      <trkpt lat="44.56444" lon="2.63362">
        <ele>619</ele>
        <time>2014-05-30T08:34:36Z</time>
      </trkpt>
      <trkpt lat="44.56442" lon="2.63347">
        <ele>618.7</ele>
        <time>2014-05-30T08:34:47Z</time>
      </trkpt>
      <trkpt lat="44.56437" lon="2.63327">
        <ele>624.7</ele>
        <time>2014-05-30T08:35:04Z</time>
      </trkpt>
      <trkpt lat="44.56436" lon="2.63313">
        <ele>629.1</ele>
        <time>2014-05-30T08:35:15Z</time>
      </trkpt>
      <trkpt lat="44.56436" lon="2.63296">
        <ele>631.7</ele>
        <time>2014-05-30T08:35:28Z</time>
      </trkpt>
      <trkpt lat="44.56433" lon="2.63272">
        <ele>628.8</ele>
        <time>2014-05-30T08:35:49Z</time>
      </trkpt>
      <trkpt lat="44.56439" lon="2.63236">
        <ele>630.2</ele>
        <time>2014-05-30T08:36:33Z</time>
      </trkpt>
      <trkpt lat="44.56447" lon="2.63222">
        <ele>630.8</ele>
        <time>2014-05-30T08:36:48Z</time>
      </trkpt>
      <trkpt lat="44.56456" lon="2.63223">
        <ele>635.4</ele>
        <time>2014-05-30T08:36:53Z</time>
      </trkpt>
      <trkpt lat="44.56462" lon="2.63223">
        <ele>629.9</ele>
        <time>2014-05-30T08:37:09Z</time>
      </trkpt>
      <trkpt lat="44.56465" lon="2.63242">
        <ele>628.9</ele>
        <time>2014-05-30T08:37:22Z</time>
      </trkpt>
      <trkpt lat="44.56479" lon="2.6325">
        <ele>633.9</ele>
        <time>2014-05-30T08:37:41Z</time>
      </trkpt>
      <trkpt lat="44.56492" lon="2.63239">
        <ele>638.5</ele>
        <time>2014-05-30T08:37:59Z</time>
      </trkpt>
      <trkpt lat="44.56518" lon="2.63221">
        <ele>643.3</ele>
        <time>2014-05-30T08:38:37Z</time>
      </trkpt>
      <trkpt lat="44.56541" lon="2.63209">
        <ele>644.3</ele>
        <time>2014-05-30T08:39:04Z</time>
      </trkpt>
      <trkpt lat="44.56559" lon="2.632">
        <ele>641.9</ele>
        <time>2014-05-30T08:39:24Z</time>
      </trkpt>
      <trkpt lat="44.56574" lon="2.63189">
        <ele>643.4</ele>
        <time>2014-05-30T08:39:41Z</time>
      </trkpt>
      <trkpt lat="44.5658" lon="2.63185">
        <ele>643.4</ele>
        <time>2014-05-30T08:39:48Z</time>
      </trkpt>
      <trkpt lat="44.56585" lon="2.63181">
        <ele>644.8</ele>
        <time>2014-05-30T08:39:54Z</time>
      </trkpt>
      <trkpt lat="44.56609" lon="2.6316">
        <ele>650</ele>
        <time>2014-05-30T08:40:31Z</time>
      </trkpt>
      <trkpt lat="44.56616" lon="2.6315">
        <ele>649.5</ele>
        <time>2014-05-30T08:40:43Z</time>
      </trkpt>
      <trkpt lat="44.56618" lon="2.63149">
        <ele>648.8</ele>
        <time>2014-05-30T08:40:51Z</time>
      </trkpt>
      <trkpt lat="44.56636" lon="2.63124">
        <ele>653.5</ele>
        <time>2014-05-30T08:41:19Z</time>
      </trkpt>
      <trkpt lat="44.5664" lon="2.63117">
        <ele>652.3</ele>
        <time>2014-05-30T08:41:26Z</time>
      </trkpt>
      <trkpt lat="44.56648" lon="2.63099">
        <ele>650.3</ele>
        <time>2014-05-30T08:41:41Z</time>
      </trkpt>
      <trkpt lat="44.56659" lon="2.63079">
        <ele>650</ele>
        <time>2014-05-30T08:42:01Z</time>
      </trkpt>
      <trkpt lat="44.56683" lon="2.63061">
        <ele>656.5</ele>
        <time>2014-05-30T08:42:17Z</time>
      </trkpt>
      <trkpt lat="44.56688" lon="2.63052">
        <ele>661.6</ele>
        <time>2014-05-30T08:42:26Z</time>
      </trkpt>
      <trkpt lat="44.56692" lon="2.6303">
        <ele>656.3</ele>
        <time>2014-05-30T08:42:45Z</time>
      </trkpt>
      <trkpt lat="44.56709" lon="2.63008">
        <ele>657.6</ele>
        <time>2014-05-30T08:43:03Z</time>
      </trkpt>
      <trkpt lat="44.56725" lon="2.62992">
        <ele>663.8</ele>
        <time>2014-05-30T08:43:19Z</time>
      </trkpt>
      <trkpt lat="44.56731" lon="2.62975">
        <ele>664.3</ele>
        <time>2014-05-30T08:43:29Z</time>
      </trkpt>
      <trkpt lat="44.56732" lon="2.62952">
        <ele>655.8</ele>
        <time>2014-05-30T08:43:47Z</time>
      </trkpt>
      <trkpt lat="44.56766" lon="2.62894">
        <ele>662</ele>
        <time>2014-05-30T08:44:03Z</time>
      </trkpt>
      <trkpt lat="44.56736" lon="2.6292">
        <ele>658.3</ele>
        <time>2014-05-30T08:44:10Z</time>
      </trkpt>
      <trkpt lat="44.56736" lon="2.6292">
        <ele>658.3</ele>
        <time>2014-05-30T08:44:18Z</time>
      </trkpt>
      <trkpt lat="44.56739" lon="2.629">
        <ele>656.8</ele>
        <time>2014-05-30T08:44:26Z</time>
      </trkpt>
      <trkpt lat="44.56734" lon="2.62876">
        <ele>651.5</ele>
        <time>2014-05-30T08:44:45Z</time>
      </trkpt>
      <trkpt lat="44.56739" lon="2.6284">
        <ele>664.1</ele>
        <time>2014-05-30T08:45:18Z</time>
      </trkpt>
      <trkpt lat="44.56739" lon="2.6284">
        <ele>605</ele>
        <time>2014-05-30T08:47:22Z</time>
      </trkpt>
      <trkpt lat="44.56739" lon="2.6284">
        <ele>605</ele>
        <time>2014-05-30T08:47:24Z</time>
      </trkpt>
      <trkpt lat="44.56736" lon="2.62832">
        <ele>659.1</ele>
        <time>2014-05-30T08:47:24Z</time>
      </trkpt>
      <trkpt lat="44.56757" lon="2.62797">
        <ele>662</ele>
        <time>2014-05-30T08:50:35Z</time>
      </trkpt>
      <trkpt lat="44.56752" lon="2.6279">
        <ele>661.7</ele>
        <time>2014-05-30T08:50:41Z</time>
      </trkpt>
      <trkpt lat="44.56747" lon="2.62789">
        <ele>665.3</ele>
        <time>2014-05-30T08:50:48Z</time>
      </trkpt>
      <trkpt lat="44.56753" lon="2.62785">
        <ele>665.8</ele>
        <time>2014-05-30T08:50:49Z</time>
      </trkpt>
      <trkpt lat="44.56749" lon="2.62772">
        <ele>662.2</ele>
        <time>2014-05-30T08:51:05Z</time>
      </trkpt>
      <trkpt lat="44.56749" lon="2.62772">
        <ele>662.2</ele>
        <time>2014-05-30T08:51:10Z</time>
      </trkpt>
      <trkpt lat="44.56749" lon="2.62772">
        <ele>662.2</ele>
        <time>2014-05-30T08:51:11Z</time>
      </trkpt>
      <trkpt lat="44.56778" lon="2.62775">
        <ele>669.6</ele>
        <time>2014-05-30T08:51:23Z</time>
      </trkpt>
      <trkpt lat="44.56805" lon="2.62773">
        <ele>677.1</ele>
        <time>2014-05-30T08:51:59Z</time>
      </trkpt>
      <trkpt lat="44.56819" lon="2.62757">
        <ele>678.8</ele>
        <time>2014-05-30T08:52:17Z</time>
      </trkpt>
      <trkpt lat="44.56823" lon="2.62752">
        <ele>681.6</ele>
        <time>2014-05-30T08:52:22Z</time>
      </trkpt>
      <trkpt lat="44.56826" lon="2.6275">
        <ele>680.6</ele>
        <time>2014-05-30T08:52:28Z</time>
      </trkpt>
      <trkpt lat="44.56849" lon="2.62724">
        <ele>674.9</ele>
        <time>2014-05-30T08:53:21Z</time>
      </trkpt>
      <trkpt lat="44.56862" lon="2.62722">
        <ele>675.8</ele>
        <time>2014-05-30T08:53:33Z</time>
      </trkpt>
      <trkpt lat="44.5688" lon="2.62721">
        <ele>675.6</ele>
        <time>2014-05-30T08:53:53Z</time>
      </trkpt>
      <trkpt lat="44.56891" lon="2.62718">
        <ele>676.8</ele>
        <time>2014-05-30T08:54:05Z</time>
      </trkpt>
      <trkpt lat="44.56907" lon="2.62716">
        <ele>677.3</ele>
        <time>2014-05-30T08:54:22Z</time>
      </trkpt>
      <trkpt lat="44.56917" lon="2.62713">
        <ele>672.6</ele>
        <time>2014-05-30T08:54:37Z</time>
      </trkpt>
      <trkpt lat="44.56926" lon="2.62708">
        <ele>676.1</ele>
        <time>2014-05-30T08:54:47Z</time>
      </trkpt>
      <trkpt lat="44.56952" lon="2.62705">
        <ele>686.4</ele>
        <time>2014-05-30T08:54:57Z</time>
      </trkpt>
      <trkpt lat="44.56958" lon="2.62705">
        <ele>696.2</ele>
        <time>2014-05-30T08:55:02Z</time>
      </trkpt>
      <trkpt lat="44.56964" lon="2.62699">
        <ele>690.8</ele>
        <time>2014-05-30T08:55:14Z</time>
      </trkpt>
      <trkpt lat="44.56964" lon="2.62699">
        <ele>690.8</ele>
        <time>2014-05-30T08:55:21Z</time>
      </trkpt>
      <trkpt lat="44.56964" lon="2.62699">
        <ele>690.8</ele>
        <time>2014-05-30T08:55:22Z</time>
      </trkpt>
      <trkpt lat="44.56974" lon="2.62682">
        <ele>678.5</ele>
        <time>2014-05-30T08:55:44Z</time>
      </trkpt>
      <trkpt lat="44.56992" lon="2.62672">
        <ele>686.8</ele>
        <time>2014-05-30T08:55:54Z</time>
      </trkpt>
      <trkpt lat="44.56992" lon="2.62672">
        <ele>686.8</ele>
        <time>2014-05-30T08:56:00Z</time>
      </trkpt>
      <trkpt lat="44.56992" lon="2.62672">
        <ele>686.8</ele>
        <time>2014-05-30T08:56:01Z</time>
      </trkpt>
      <trkpt lat="44.5702" lon="2.62639">
        <ele>683.8</ele>
        <time>2014-05-30T08:56:45Z</time>
      </trkpt>
      <trkpt lat="44.57025" lon="2.62636">
        <ele>690</ele>
        <time>2014-05-30T08:56:50Z</time>
      </trkpt>
      <trkpt lat="44.57026" lon="2.62632">
        <ele>690.5</ele>
        <time>2014-05-30T08:56:57Z</time>
      </trkpt>
      <trkpt lat="44.57047" lon="2.62608">
        <ele>691</ele>
        <time>2014-05-30T08:57:36Z</time>
      </trkpt>
      <trkpt lat="44.57059" lon="2.62598">
        <ele>687.3</ele>
        <time>2014-05-30T08:57:51Z</time>
      </trkpt>
      <trkpt lat="44.5707" lon="2.62592">
        <ele>690</ele>
        <time>2014-05-30T08:58:03Z</time>
      </trkpt>
      <trkpt lat="44.57084" lon="2.62582">
        <ele>692.9</ele>
        <time>2014-05-30T08:58:18Z</time>
      </trkpt>
      <trkpt lat="44.57105" lon="2.62572">
        <ele>694.1</ele>
        <time>2014-05-30T08:58:34Z</time>
      </trkpt>
      <trkpt lat="44.57117" lon="2.62569">
        <ele>700.3</ele>
        <time>2014-05-30T08:58:48Z</time>
      </trkpt>
      <trkpt lat="44.5714" lon="2.62567">
        <ele>704.2</ele>
        <time>2014-05-30T08:58:58Z</time>
      </trkpt>
      <trkpt lat="44.57138" lon="2.62561">
        <ele>705.8</ele>
        <time>2014-05-30T08:59:09Z</time>
      </trkpt>
      <trkpt lat="44.57138" lon="2.62561">
        <ele>705.8</ele>
        <time>2014-05-30T08:59:14Z</time>
      </trkpt>
      <trkpt lat="44.57138" lon="2.62561">
        <ele>705.8</ele>
        <time>2014-05-30T08:59:15Z</time>
      </trkpt>
      <trkpt lat="44.57165" lon="2.62555">
        <ele>700.9</ele>
        <time>2014-05-30T08:59:52Z</time>
      </trkpt>
      <trkpt lat="44.57165" lon="2.62555">
        <ele>700.9</ele>
        <time>2014-05-30T08:59:57Z</time>
      </trkpt>
      <trkpt lat="44.57165" lon="2.62555">
        <ele>700.9</ele>
        <time>2014-05-30T08:59:58Z</time>
      </trkpt>
      <trkpt lat="44.57177" lon="2.62535">
        <ele>699.9</ele>
        <time>2014-05-30T09:00:13Z</time>
      </trkpt>
      <trkpt lat="44.57202" lon="2.62537">
        <ele>702.6</ele>
        <time>2014-05-30T09:00:20Z</time>
      </trkpt>
      <trkpt lat="44.57202" lon="2.62531">
        <ele>703.9</ele>
        <time>2014-05-30T09:00:30Z</time>
      </trkpt>
      <trkpt lat="44.57229" lon="2.62567">
        <ele>714.4</ele>
        <time>2014-05-30T09:00:48Z</time>
      </trkpt>
      <trkpt lat="44.57225" lon="2.62535">
        <ele>713.9</ele>
        <time>2014-05-30T09:00:53Z</time>
      </trkpt>
      <trkpt lat="44.57226" lon="2.62529">
        <ele>713.6</ele>
        <time>2014-05-30T09:00:57Z</time>
      </trkpt>
      <trkpt lat="44.57225" lon="2.62522">
        <ele>710</ele>
        <time>2014-05-30T09:01:03Z</time>
      </trkpt>
      <trkpt lat="44.5725" lon="2.62508">
        <ele>714.6</ele>
        <time>2014-05-30T09:01:19Z</time>
      </trkpt>
      <trkpt lat="44.5726" lon="2.62502">
        <ele>712.9</ele>
        <time>2014-05-30T09:01:26Z</time>
      </trkpt>
      <trkpt lat="44.57253" lon="2.62504">
        <ele>708</ele>
        <time>2014-05-30T09:01:33Z</time>
      </trkpt>
      <trkpt lat="44.57281" lon="2.62495">
        <ele>702.2</ele>
        <time>2014-05-30T09:02:09Z</time>
      </trkpt>
      <trkpt lat="44.57294" lon="2.62486">
        <ele>704.3</ele>
        <time>2014-05-30T09:02:23Z</time>
      </trkpt>
      <trkpt lat="44.57308" lon="2.62474">
        <ele>705.8</ele>
        <time>2014-05-30T09:02:37Z</time>
      </trkpt>
      <trkpt lat="44.57317" lon="2.62459">
        <ele>707.4</ele>
        <time>2014-05-30T09:02:48Z</time>
      </trkpt>
      <trkpt lat="44.57322" lon="2.62448">
        <ele>710.6</ele>
        <time>2014-05-30T09:02:59Z</time>
      </trkpt>
      <trkpt lat="44.57329" lon="2.62431">
        <ele>710.9</ele>
        <time>2014-05-30T09:03:13Z</time>
      </trkpt>
      <trkpt lat="44.57337" lon="2.62409">
        <ele>715.8</ele>
        <time>2014-05-30T09:03:22Z</time>
      </trkpt>
      <trkpt lat="44.57341" lon="2.62402">
        <ele>713.2</ele>
        <time>2014-05-30T09:03:34Z</time>
      </trkpt>
      <trkpt lat="44.5735" lon="2.62388">
        <ele>712.4</ele>
        <time>2014-05-30T09:03:47Z</time>
      </trkpt>
      <trkpt lat="44.57361" lon="2.62375">
        <ele>707.7</ele>
        <time>2014-05-30T09:04:06Z</time>
      </trkpt>
      <trkpt lat="44.57381" lon="2.6236">
        <ele>710.1</ele>
        <time>2014-05-30T09:04:23Z</time>
      </trkpt>
      <trkpt lat="44.57393" lon="2.62354">
        <ele>713.9</ele>
        <time>2014-05-30T09:04:31Z</time>
      </trkpt>
      <trkpt lat="44.57405" lon="2.62346">
        <ele>709.8</ele>
        <time>2014-05-30T09:04:48Z</time>
      </trkpt>
      <trkpt lat="44.57414" lon="2.62339">
        <ele>710.1</ele>
        <time>2014-05-30T09:04:55Z</time>
      </trkpt>
      <trkpt lat="44.57423" lon="2.62335">
        <ele>710.2</ele>
        <time>2014-05-30T09:05:03Z</time>
      </trkpt>
      <trkpt lat="44.57425" lon="2.62334">
        <ele>709</ele>
        <time>2014-05-30T09:05:06Z</time>
      </trkpt>
      <trkpt lat="44.57423" lon="2.62335">
        <ele>710.2</ele>
        <time>2014-05-30T09:05:14Z</time>
      </trkpt>
      <trkpt lat="44.57442" lon="2.62316">
        <ele>712.1</ele>
        <time>2014-05-30T09:09:40Z</time>
      </trkpt>
      <trkpt lat="44.57442" lon="2.62316">
        <ele>712.1</ele>
        <time>2014-05-30T09:09:49Z</time>
      </trkpt>
      <trkpt lat="44.57442" lon="2.62316">
        <ele>712.1</ele>
        <time>2014-05-30T09:09:50Z</time>
      </trkpt>
      <trkpt lat="44.57463" lon="2.62291">
        <ele>709.6</ele>
        <time>2014-05-30T09:11:15Z</time>
      </trkpt>
      <trkpt lat="44.5749" lon="2.62273">
        <ele>712</ele>
        <time>2014-05-30T09:11:42Z</time>
      </trkpt>
      <trkpt lat="44.5749" lon="2.62273">
        <ele>712</ele>
        <time>2014-05-30T09:11:49Z</time>
      </trkpt>
      <trkpt lat="44.5749" lon="2.62273">
        <ele>712</ele>
        <time>2014-05-30T09:11:50Z</time>
      </trkpt>
      <trkpt lat="44.57496" lon="2.62255">
        <ele>709.3</ele>
        <time>2014-05-30T09:12:03Z</time>
      </trkpt>
      <trkpt lat="44.57506" lon="2.62233">
        <ele>713.8</ele>
        <time>2014-05-30T09:12:21Z</time>
      </trkpt>
      <trkpt lat="44.57506" lon="2.62233">
        <ele>713.8</ele>
        <time>2014-05-30T09:12:28Z</time>
      </trkpt>
      <trkpt lat="44.57506" lon="2.62233">
        <ele>713.8</ele>
        <time>2014-05-30T09:12:29Z</time>
      </trkpt>
      <trkpt lat="44.57514" lon="2.62216">
        <ele>710</ele>
        <time>2014-05-30T09:12:39Z</time>
      </trkpt>
      <trkpt lat="44.57519" lon="2.62205">
        <ele>710.8</ele>
        <time>2014-05-30T09:12:48Z</time>
      </trkpt>
      <trkpt lat="44.57533" lon="2.62197">
        <ele>716.1</ele>
        <time>2014-05-30T09:13:01Z</time>
      </trkpt>
      <trkpt lat="44.57536" lon="2.62195">
        <ele>715.8</ele>
        <time>2014-05-30T09:13:05Z</time>
      </trkpt>
      <trkpt lat="44.57536" lon="2.62192">
        <ele>714.5</ele>
        <time>2014-05-30T09:13:14Z</time>
      </trkpt>
      <trkpt lat="44.57559" lon="2.62171">
        <ele>699</ele>
        <time>2014-05-30T09:14:08Z</time>
      </trkpt>
      <trkpt lat="44.57559" lon="2.62171">
        <ele>699</ele>
        <time>2014-05-30T09:14:15Z</time>
      </trkpt>
      <trkpt lat="44.5757" lon="2.62165">
        <ele>697.5</ele>
        <time>2014-05-30T09:14:21Z</time>
      </trkpt>
      <trkpt lat="44.57592" lon="2.62164">
        <ele>703.1</ele>
        <time>2014-05-30T09:14:33Z</time>
      </trkpt>
      <trkpt lat="44.57599" lon="2.6216">
        <ele>699.4</ele>
        <time>2014-05-30T09:14:43Z</time>
      </trkpt>
      <trkpt lat="44.57628" lon="2.62154">
        <ele>707.8</ele>
        <time>2014-05-30T09:15:00Z</time>
      </trkpt>
      <trkpt lat="44.57647" lon="2.62147">
        <ele>705.7</ele>
        <time>2014-05-30T09:15:16Z</time>
      </trkpt>
      <trkpt lat="44.57652" lon="2.62147">
        <ele>705.8</ele>
        <time>2014-05-30T09:15:19Z</time>
      </trkpt>
      <trkpt lat="44.57663" lon="2.62142">
        <ele>701.1</ele>
        <time>2014-05-30T09:15:31Z</time>
      </trkpt>
      <trkpt lat="44.57672" lon="2.6214">
        <ele>699.4</ele>
        <time>2014-05-30T09:15:40Z</time>
      </trkpt>
      <trkpt lat="44.57686" lon="2.62134">
        <ele>698.2</ele>
        <time>2014-05-30T09:15:53Z</time>
      </trkpt>
      <trkpt lat="44.57695" lon="2.62121">
        <ele>693.2</ele>
        <time>2014-05-30T09:16:09Z</time>
      </trkpt>
      <trkpt lat="44.577" lon="2.62094">
        <ele>688.8</ele>
        <time>2014-05-30T09:16:27Z</time>
      </trkpt>
      <trkpt lat="44.57711" lon="2.62075">
        <ele>689.7</ele>
        <time>2014-05-30T09:16:42Z</time>
      </trkpt>
      <trkpt lat="44.57743" lon="2.62075">
        <ele>701.4</ele>
        <time>2014-05-30T09:16:57Z</time>
      </trkpt>
      <trkpt lat="44.57743" lon="2.62075">
        <ele>701.4</ele>
        <time>2014-05-30T09:17:03Z</time>
      </trkpt>
      <trkpt lat="44.57743" lon="2.62075">
        <ele>701.4</ele>
        <time>2014-05-30T09:17:04Z</time>
      </trkpt>
      <trkpt lat="44.57738" lon="2.62052">
        <ele>685</ele>
        <time>2014-05-30T09:17:14Z</time>
      </trkpt>
      <trkpt lat="44.57752" lon="2.62036">
        <ele>688.6</ele>
        <time>2014-05-30T09:17:25Z</time>
      </trkpt>
      <trkpt lat="44.5777" lon="2.62026">
        <ele>690.8</ele>
        <time>2014-05-30T09:17:32Z</time>
      </trkpt>
      <trkpt lat="44.57778" lon="2.62024">
        <ele>691.4</ele>
        <time>2014-05-30T09:17:36Z</time>
      </trkpt>
      <trkpt lat="44.57779" lon="2.62016">
        <ele>694.6</ele>
        <time>2014-05-30T09:17:51Z</time>
      </trkpt>
      <trkpt lat="44.57779" lon="2.62016">
        <ele>694.6</ele>
        <time>2014-05-30T09:17:58Z</time>
      </trkpt>
      <trkpt lat="44.57791" lon="2.62004">
        <ele>686.2</ele>
        <time>2014-05-30T09:18:09Z</time>
      </trkpt>
      <trkpt lat="44.57832" lon="2.62006">
        <ele>697.7</ele>
        <time>2014-05-30T09:18:22Z</time>
      </trkpt>
      <trkpt lat="44.57832" lon="2.62006">
        <ele>697.7</ele>
        <time>2014-05-30T09:18:29Z</time>
      </trkpt>
      <trkpt lat="44.57832" lon="2.62006">
        <ele>697.7</ele>
        <time>2014-05-30T09:18:30Z</time>
      </trkpt>
      <trkpt lat="44.57871" lon="2.62021">
        <ele>673.9</ele>
        <time>2014-05-30T09:19:26Z</time>
      </trkpt>
      <trkpt lat="44.57894" lon="2.6203">
        <ele>671</ele>
        <time>2014-05-30T09:19:47Z</time>
      </trkpt>
      <trkpt lat="44.57909" lon="2.62035">
        <ele>668.3</ele>
        <time>2014-05-30T09:20:03Z</time>
      </trkpt>
      <trkpt lat="44.57924" lon="2.62042">
        <ele>669.2</ele>
        <time>2014-05-30T09:20:17Z</time>
      </trkpt>
      <trkpt lat="44.57938" lon="2.62047">
        <ele>672.4</ele>
        <time>2014-05-30T09:20:29Z</time>
      </trkpt>
      <trkpt lat="44.57951" lon="2.6205">
        <ele>671.4</ele>
        <time>2014-05-30T09:20:38Z</time>
      </trkpt>
      <trkpt lat="44.58071" lon="2.61906">
        <ele>634</ele>
        <time>2014-05-30T09:23:10Z</time>
      </trkpt>
      <trkpt lat="44.58097" lon="2.61891">
        <ele>640.4</ele>
        <time>2014-05-30T09:23:27Z</time>
      </trkpt>
      <trkpt lat="44.58114" lon="2.61881">
        <ele>644.4</ele>
        <time>2014-05-30T09:23:41Z</time>
      </trkpt>
      <trkpt lat="44.58141" lon="2.6187">
        <ele>655.1</ele>
        <time>2014-05-30T09:24:00Z</time>
      </trkpt>
      <trkpt lat="44.58156" lon="2.61859">
        <ele>660.7</ele>
        <time>2014-05-30T09:24:16Z</time>
      </trkpt>
      <trkpt lat="44.58169" lon="2.61854">
        <ele>663.5</ele>
        <time>2014-05-30T09:24:30Z</time>
      </trkpt>
      <trkpt lat="44.58187" lon="2.61853">
        <ele>659.1</ele>
        <time>2014-05-30T09:24:40Z</time>
      </trkpt>
      <trkpt lat="44.58195" lon="2.61849">
        <ele>662.6</ele>
        <time>2014-05-30T09:24:50Z</time>
      </trkpt>
      <trkpt lat="44.58213" lon="2.6184">
        <ele>662.5</ele>
        <time>2014-05-30T09:25:05Z</time>
      </trkpt>
      <trkpt lat="44.5823" lon="2.61838">
        <ele>659.2</ele>
        <time>2014-05-30T09:25:20Z</time>
      </trkpt>
      <trkpt lat="44.58253" lon="2.61829">
        <ele>653.7</ele>
        <time>2014-05-30T09:25:41Z</time>
      </trkpt>
      <trkpt lat="44.58272" lon="2.61819">
        <ele>652.9</ele>
        <time>2014-05-30T09:26:00Z</time>
      </trkpt>
      <trkpt lat="44.58284" lon="2.61817">
        <ele>653.8</ele>
        <time>2014-05-30T09:26:05Z</time>
      </trkpt>
      <trkpt lat="44.58297" lon="2.61813">
        <ele>652.5</ele>
        <time>2014-05-30T09:26:15Z</time>
      </trkpt>
      <trkpt lat="44.58308" lon="2.61809">
        <ele>654.1</ele>
        <time>2014-05-30T09:26:27Z</time>
      </trkpt>
      <trkpt lat="44.58321" lon="2.618">
        <ele>653.8</ele>
        <time>2014-05-30T09:26:38Z</time>
      </trkpt>
      <trkpt lat="44.58337" lon="2.61787">
        <ele>649.4</ele>
        <time>2014-05-30T09:26:53Z</time>
      </trkpt>
      <trkpt lat="44.58343" lon="2.61777">
        <ele>645.3</ele>
        <time>2014-05-30T09:27:06Z</time>
      </trkpt>
      <trkpt lat="44.58361" lon="2.61761">
        <ele>642.3</ele>
        <time>2014-05-30T09:27:22Z</time>
      </trkpt>
      <trkpt lat="44.58366" lon="2.61756">
        <ele>641.9</ele>
        <time>2014-05-30T09:27:28Z</time>
      </trkpt>
      <trkpt lat="44.58368" lon="2.61756">
        <ele>641.3</ele>
        <time>2014-05-30T09:27:37Z</time>
      </trkpt>
      <trkpt lat="44.58391" lon="2.61744">
        <ele>644.2</ele>
        <time>2014-05-30T09:28:01Z</time>
      </trkpt>
      <trkpt lat="44.58421" lon="2.61728">
        <ele>647</ele>
        <time>2014-05-30T09:28:29Z</time>
      </trkpt>
      <trkpt lat="44.58465" lon="2.61708">
        <ele>651.7</ele>
        <time>2014-05-30T09:28:46Z</time>
      </trkpt>
      <trkpt lat="44.58487" lon="2.61692">
        <ele>658</ele>
        <time>2014-05-30T09:29:02Z</time>
      </trkpt>
      <trkpt lat="44.58488" lon="2.61675">
        <ele>652.1</ele>
        <time>2014-05-30T09:29:18Z</time>
      </trkpt>
      <trkpt lat="44.58504" lon="2.61657">
        <ele>645.7</ele>
        <time>2014-05-30T09:29:34Z</time>
      </trkpt>
      <trkpt lat="44.58523" lon="2.61642">
        <ele>646.8</ele>
        <time>2014-05-30T09:29:50Z</time>
      </trkpt>
      <trkpt lat="44.58528" lon="2.6164">
        <ele>647.8</ele>
        <time>2014-05-30T09:29:53Z</time>
      </trkpt>
      <trkpt lat="44.58533" lon="2.61624">
        <ele>640.7</ele>
        <time>2014-05-30T09:30:10Z</time>
      </trkpt>
      <trkpt lat="44.58549" lon="2.61622">
        <ele>644</ele>
        <time>2014-05-30T09:30:16Z</time>
      </trkpt>
      <trkpt lat="44.58557" lon="2.61614">
        <ele>643.8</ele>
        <time>2014-05-30T09:30:27Z</time>
      </trkpt>
      <trkpt lat="44.58568" lon="2.61611">
        <ele>645</ele>
        <time>2014-05-30T09:30:35Z</time>
      </trkpt>
      <trkpt lat="44.5858" lon="2.61605">
        <ele>641.6</ele>
        <time>2014-05-30T09:30:46Z</time>
      </trkpt>
      <trkpt lat="44.58596" lon="2.61587">
        <ele>640.3</ele>
        <time>2014-05-30T09:31:01Z</time>
      </trkpt>
      <trkpt lat="44.58616" lon="2.61565">
        <ele>644.2</ele>
        <time>2014-05-30T09:31:18Z</time>
      </trkpt>
      <trkpt lat="44.58611" lon="2.61541">
        <ele>640.6</ele>
        <time>2014-05-30T09:31:30Z</time>
      </trkpt>
      <trkpt lat="44.58617" lon="2.61523">
        <ele>639</ele>
        <time>2014-05-30T09:31:45Z</time>
      </trkpt>
      <trkpt lat="44.5863" lon="2.61504">
        <ele>636.5</ele>
        <time>2014-05-30T09:32:01Z</time>
      </trkpt>
      <trkpt lat="44.58647" lon="2.6148">
        <ele>631.8</ele>
        <time>2014-05-30T09:32:22Z</time>
      </trkpt>
      <trkpt lat="44.5867" lon="2.61464">
        <ele>634.4</ele>
        <time>2014-05-30T09:32:38Z</time>
      </trkpt>
      <trkpt lat="44.58678" lon="2.61451">
        <ele>633</ele>
        <time>2014-05-30T09:32:48Z</time>
      </trkpt>
      <trkpt lat="44.58679" lon="2.61429">
        <ele>631.6</ele>
        <time>2014-05-30T09:33:03Z</time>
      </trkpt>
      <trkpt lat="44.5867" lon="2.61411">
        <ele>627.9</ele>
        <time>2014-05-30T09:33:16Z</time>
      </trkpt>
      <trkpt lat="44.58661" lon="2.61401">
        <ele>628</ele>
        <time>2014-05-30T09:33:25Z</time>
      </trkpt>
      <trkpt lat="44.58645" lon="2.61386">
        <ele>626.2</ele>
        <time>2014-05-30T09:33:42Z</time>
      </trkpt>
      <trkpt lat="44.58626" lon="2.61369">
        <ele>628.8</ele>
        <time>2014-05-30T09:33:59Z</time>
      </trkpt>
      <trkpt lat="44.58615" lon="2.61348">
        <ele>624.5</ele>
        <time>2014-05-30T09:34:13Z</time>
      </trkpt>
      <trkpt lat="44.5862" lon="2.61324">
        <ele>628.8</ele>
        <time>2014-05-30T09:34:27Z</time>
      </trkpt>
      <trkpt lat="44.58634" lon="2.6131">
        <ele>629.7</ele>
        <time>2014-05-30T09:34:36Z</time>
      </trkpt>
      <trkpt lat="44.58652" lon="2.61296">
        <ele>631.5</ele>
        <time>2014-05-30T09:34:49Z</time>
      </trkpt>
      <trkpt lat="44.58657" lon="2.61282">
        <ele>633.1</ele>
        <time>2014-05-30T09:35:03Z</time>
      </trkpt>
      <trkpt lat="44.58669" lon="2.61268">
        <ele>632.8</ele>
        <time>2014-05-30T09:35:13Z</time>
      </trkpt>
      <trkpt lat="44.58676" lon="2.61242">
        <ele>632</ele>
        <time>2014-05-30T09:35:27Z</time>
      </trkpt>
      <trkpt lat="44.58682" lon="2.61221">
        <ele>627.8</ele>
        <time>2014-05-30T09:35:41Z</time>
      </trkpt>
      <trkpt lat="44.58674" lon="2.612">
        <ele>623.7</ele>
        <time>2014-05-30T09:35:55Z</time>
      </trkpt>
      <trkpt lat="44.58672" lon="2.61168">
        <ele>625</ele>
        <time>2014-05-30T09:36:12Z</time>
      </trkpt>
      <trkpt lat="44.58656" lon="2.61149">
        <ele>621.1</ele>
        <time>2014-05-30T09:36:27Z</time>
      </trkpt>
      <trkpt lat="44.58644" lon="2.61134">
        <ele>618</ele>
        <time>2014-05-30T09:36:42Z</time>
      </trkpt>
      <trkpt lat="44.58648" lon="2.61104">
        <ele>622.2</ele>
        <time>2014-05-30T09:37:02Z</time>
      </trkpt>
      <trkpt lat="44.58648" lon="2.61104">
        <ele>622.2</ele>
        <time>2014-05-30T09:37:09Z</time>
      </trkpt>
      <trkpt lat="44.58648" lon="2.61104">
        <ele>622.2</ele>
        <time>2014-05-30T09:37:10Z</time>
      </trkpt>
      <trkpt lat="44.58662" lon="2.61098">
        <ele>628.8</ele>
        <time>2014-05-30T09:37:21Z</time>
      </trkpt>
      <trkpt lat="44.5867" lon="2.61097">
        <ele>631.7</ele>
        <time>2014-05-30T09:37:30Z</time>
      </trkpt>
      <trkpt lat="44.58673" lon="2.61096">
        <ele>632</ele>
        <time>2014-05-30T09:37:39Z</time>
      </trkpt>
      <trkpt lat="44.5869" lon="2.61088">
        <ele>625.5</ele>
        <time>2014-05-30T09:37:55Z</time>
      </trkpt>
      <trkpt lat="44.58699" lon="2.61083">
        <ele>620.8</ele>
        <time>2014-05-30T09:38:00Z</time>
      </trkpt>
      <trkpt lat="44.58725" lon="2.61085">
        <ele>618.5</ele>
        <time>2014-05-30T09:38:12Z</time>
      </trkpt>
      <trkpt lat="44.58738" lon="2.61093">
        <ele>616.2</ele>
        <time>2014-05-30T09:38:22Z</time>
      </trkpt>
      <trkpt lat="44.58754" lon="2.61099">
        <ele>614.6</ele>
        <time>2014-05-30T09:38:35Z</time>
      </trkpt>
      <trkpt lat="44.58763" lon="2.61101">
        <ele>609.7</ele>
        <time>2014-05-30T09:38:45Z</time>
      </trkpt>
      <trkpt lat="44.58774" lon="2.61099">
        <ele>608.8</ele>
        <time>2014-05-30T09:38:59Z</time>
      </trkpt>
      <trkpt lat="44.58785" lon="2.61095">
        <ele>606.9</ele>
        <time>2014-05-30T09:39:12Z</time>
      </trkpt>
      <trkpt lat="44.58804" lon="2.61083">
        <ele>603.3</ele>
        <time>2014-05-30T09:39:26Z</time>
      </trkpt>
      <trkpt lat="44.58814" lon="2.61083">
        <ele>604.1</ele>
        <time>2014-05-30T09:39:32Z</time>
      </trkpt>
      <trkpt lat="44.58825" lon="2.61076">
        <ele>606.9</ele>
        <time>2014-05-30T09:39:46Z</time>
      </trkpt>
      <trkpt lat="44.58842" lon="2.61054">
        <ele>606.9</ele>
        <time>2014-05-30T09:39:58Z</time>
      </trkpt>
      <trkpt lat="44.58847" lon="2.61049">
        <ele>610.2</ele>
        <time>2014-05-30T09:40:05Z</time>
      </trkpt>
      <trkpt lat="44.58851" lon="2.61038">
        <ele>610.4</ele>
        <time>2014-05-30T09:40:16Z</time>
      </trkpt>
      <trkpt lat="44.58855" lon="2.61029">
        <ele>609.7</ele>
        <time>2014-05-30T09:40:24Z</time>
      </trkpt>
      <trkpt lat="44.58856" lon="2.61012">
        <ele>615.5</ele>
        <time>2014-05-30T09:40:38Z</time>
      </trkpt>
      <trkpt lat="44.58855" lon="2.60997">
        <ele>615.1</ele>
        <time>2014-05-30T09:40:49Z</time>
      </trkpt>
      <trkpt lat="44.58853" lon="2.60968">
        <ele>617.8</ele>
        <time>2014-05-30T09:41:08Z</time>
      </trkpt>
      <trkpt lat="44.58847" lon="2.6095">
        <ele>620</ele>
        <time>2014-05-30T09:41:21Z</time>
      </trkpt>
      <trkpt lat="44.58844" lon="2.60937">
        <ele>621.2</ele>
        <time>2014-05-30T09:41:33Z</time>
      </trkpt>
      <trkpt lat="44.58838" lon="2.60924">
        <ele>620.7</ele>
        <time>2014-05-30T09:41:44Z</time>
      </trkpt>
      <trkpt lat="44.58833" lon="2.60915">
        <ele>622.3</ele>
        <time>2014-05-30T09:41:55Z</time>
      </trkpt>
      <trkpt lat="44.5882" lon="2.60892">
        <ele>626.1</ele>
        <time>2014-05-30T09:42:16Z</time>
      </trkpt>
      <trkpt lat="44.58817" lon="2.60885">
        <ele>628.1</ele>
        <time>2014-05-30T09:42:19Z</time>
      </trkpt>
      <trkpt lat="44.58817" lon="2.60883">
        <ele>629</ele>
        <time>2014-05-30T09:42:26Z</time>
      </trkpt>
      <trkpt lat="44.58816" lon="2.60856">
        <ele>632.7</ele>
        <time>2014-05-30T09:42:41Z</time>
      </trkpt>
      <trkpt lat="44.58819" lon="2.60829">
        <ele>633</ele>
        <time>2014-05-30T09:42:54Z</time>
      </trkpt>
      <trkpt lat="44.58819" lon="2.60803">
        <ele>632.2</ele>
        <time>2014-05-30T09:43:09Z</time>
      </trkpt>
      <trkpt lat="44.5882" lon="2.60769">
        <ele>634</ele>
        <time>2014-05-30T09:43:29Z</time>
      </trkpt>
      <trkpt lat="44.5883" lon="2.6074">
        <ele>634.9</ele>
        <time>2014-05-30T09:43:46Z</time>
      </trkpt>
      <trkpt lat="44.58828" lon="2.60726">
        <ele>634.7</ele>
        <time>2014-05-30T09:43:56Z</time>
      </trkpt>
      <trkpt lat="44.58828" lon="2.60695">
        <ele>632.7</ele>
        <time>2014-05-30T09:44:13Z</time>
      </trkpt>
      <trkpt lat="44.58828" lon="2.60675">
        <ele>633.8</ele>
        <time>2014-05-30T09:44:25Z</time>
      </trkpt>
      <trkpt lat="44.58833" lon="2.60651">
        <ele>628.4</ele>
        <time>2014-05-30T09:44:45Z</time>
      </trkpt>
      <trkpt lat="44.58838" lon="2.60649">
        <ele>629</ele>
        <time>2014-05-30T09:44:50Z</time>
      </trkpt>
      <trkpt lat="44.58851" lon="2.6065">
        <ele>633.1</ele>
        <time>2014-05-30T09:45:02Z</time>
      </trkpt>
      <trkpt lat="44.5886" lon="2.60652">
        <ele>635.1</ele>
        <time>2014-05-30T09:45:12Z</time>
      </trkpt>
      <trkpt lat="44.58872" lon="2.60657">
        <ele>639.7</ele>
        <time>2014-05-30T09:45:26Z</time>
      </trkpt>
      <trkpt lat="44.58877" lon="2.60657">
        <ele>639.6</ele>
        <time>2014-05-30T09:45:30Z</time>
      </trkpt>
      <trkpt lat="44.58875" lon="2.60651">
        <ele>639.3</ele>
        <time>2014-05-30T09:45:39Z</time>
      </trkpt>
      <trkpt lat="44.58862" lon="2.60637">
        <ele>638.2</ele>
        <time>2014-05-30T09:45:58Z</time>
      </trkpt>
      <trkpt lat="44.5885" lon="2.60623">
        <ele>637.4</ele>
        <time>2014-05-30T09:46:10Z</time>
      </trkpt>
      <trkpt lat="44.58847" lon="2.60601">
        <ele>640.2</ele>
        <time>2014-05-30T09:46:24Z</time>
      </trkpt>
      <trkpt lat="44.58847" lon="2.60573">
        <ele>647</ele>
        <time>2014-05-30T09:46:41Z</time>
      </trkpt>
      <trkpt lat="44.58849" lon="2.60554">
        <ele>645.1</ele>
        <time>2014-05-30T09:46:54Z</time>
      </trkpt>
      <trkpt lat="44.58852" lon="2.60527">
        <ele>645</ele>
        <time>2014-05-30T09:47:10Z</time>
      </trkpt>
      <trkpt lat="44.5885" lon="2.60497">
        <ele>650.9</ele>
        <time>2014-05-30T09:47:28Z</time>
      </trkpt>
      <trkpt lat="44.58849" lon="2.60478">
        <ele>652.8</ele>
        <time>2014-05-30T09:47:43Z</time>
      </trkpt>
      <trkpt lat="44.58849" lon="2.60477">
        <ele>649.6</ele>
        <time>2014-05-30T09:47:52Z</time>
      </trkpt>
      <trkpt lat="44.58849" lon="2.60477">
        <ele>591</ele>
        <time>2014-05-30T09:53:46Z</time>
      </trkpt>
      <trkpt lat="44.58849" lon="2.60477">
        <ele>591</ele>
        <time>2014-05-30T09:53:48Z</time>
      </trkpt>
      <trkpt lat="44.58849" lon="2.60475">
        <ele>591</ele>
        <time>2014-05-30T09:55:26Z</time>
      </trkpt>
      <trkpt lat="44.58849" lon="2.60475">
        <ele>649.8</ele>
        <time>2014-05-30T09:55:27Z</time>
      </trkpt>
      <trkpt lat="44.58864" lon="2.60438">
        <ele>648.1</ele>
        <time>2014-05-30T09:56:35Z</time>
      </trkpt>
      <trkpt lat="44.58872" lon="2.6042">
        <ele>644.6</ele>
        <time>2014-05-30T09:56:48Z</time>
      </trkpt>
      <trkpt lat="44.58875" lon="2.60394">
        <ele>642.5</ele>
        <time>2014-05-30T09:57:04Z</time>
      </trkpt>
      <trkpt lat="44.58885" lon="2.60379">
        <ele>641.9</ele>
        <time>2014-05-30T09:57:12Z</time>
      </trkpt>
      <trkpt lat="44.5891" lon="2.60366">
        <ele>646.6</ele>
        <time>2014-05-30T09:57:21Z</time>
      </trkpt>
      <trkpt lat="44.58915" lon="2.60359">
        <ele>645.8</ele>
        <time>2014-05-30T09:57:26Z</time>
      </trkpt>
      <trkpt lat="44.58907" lon="2.60347">
        <ele>644.9</ele>
        <time>2014-05-30T09:57:35Z</time>
      </trkpt>
      <trkpt lat="44.58917" lon="2.60322">
        <ele>641.7</ele>
        <time>2014-05-30T09:57:42Z</time>
      </trkpt>
      <trkpt lat="44.58909" lon="2.60309">
        <ele>641.2</ele>
        <time>2014-05-30T09:57:48Z</time>
      </trkpt>
      <trkpt lat="44.58903" lon="2.60289">
        <ele>641.7</ele>
        <time>2014-05-30T09:58:00Z</time>
      </trkpt>
      <trkpt lat="44.5891" lon="2.60254">
        <ele>634.7</ele>
        <time>2014-05-30T09:58:19Z</time>
      </trkpt>
      <trkpt lat="44.58913" lon="2.60232">
        <ele>631.4</ele>
        <time>2014-05-30T09:58:32Z</time>
      </trkpt>
      <trkpt lat="44.58919" lon="2.60213">
        <ele>632.4</ele>
        <time>2014-05-30T09:58:43Z</time>
      </trkpt>
      <trkpt lat="44.58948" lon="2.6021">
        <ele>640.3</ele>
        <time>2014-05-30T09:58:58Z</time>
      </trkpt>
      <trkpt lat="44.58965" lon="2.60191">
        <ele>639.9</ele>
        <time>2014-05-30T09:59:05Z</time>
      </trkpt>
      <trkpt lat="44.58954" lon="2.60194">
        <ele>639.4</ele>
        <time>2014-05-30T09:59:19Z</time>
      </trkpt>
      <trkpt lat="44.58954" lon="2.60194">
        <ele>639.4</ele>
        <time>2014-05-30T09:59:26Z</time>
      </trkpt>
      <trkpt lat="44.58954" lon="2.60194">
        <ele>639.4</ele>
        <time>2014-05-30T09:59:27Z</time>
      </trkpt>
      <trkpt lat="44.58961" lon="2.60159">
        <ele>642.8</ele>
        <time>2014-05-30T10:00:11Z</time>
      </trkpt>
      <trkpt lat="44.58954" lon="2.60149">
        <ele>644.6</ele>
        <time>2014-05-30T10:00:20Z</time>
      </trkpt>
      <trkpt lat="44.58942" lon="2.6014">
        <ele>646.4</ele>
        <time>2014-05-30T10:00:37Z</time>
      </trkpt>
      <trkpt lat="44.5894" lon="2.60138">
        <ele>645.7</ele>
        <time>2014-05-30T10:00:40Z</time>
      </trkpt>
      <trkpt lat="44.58932" lon="2.60135">
        <ele>646</ele>
        <time>2014-05-30T10:00:53Z</time>
      </trkpt>
      <trkpt lat="44.58929" lon="2.60131">
        <ele>647.9</ele>
        <time>2014-05-30T10:00:59Z</time>
      </trkpt>
      <trkpt lat="44.58927" lon="2.60132">
        <ele>648.9</ele>
        <time>2014-05-30T10:01:07Z</time>
      </trkpt>
      <trkpt lat="44.58906" lon="2.60104">
        <ele>652</ele>
        <time>2014-05-30T10:02:27Z</time>
      </trkpt>
      <trkpt lat="44.58894" lon="2.60077">
        <ele>657.7</ele>
        <time>2014-05-30T10:02:40Z</time>
      </trkpt>
      <trkpt lat="44.58888" lon="2.60075">
        <ele>658.5</ele>
        <time>2014-05-30T10:02:43Z</time>
      </trkpt>
      <trkpt lat="44.58889" lon="2.60069">
        <ele>662.5</ele>
        <time>2014-05-30T10:02:52Z</time>
      </trkpt>
      <trkpt lat="44.58914" lon="2.60076">
        <ele>664.3</ele>
        <time>2014-05-30T10:03:19Z</time>
      </trkpt>
      <trkpt lat="44.5893" lon="2.60072">
        <ele>665.4</ele>
        <time>2014-05-30T10:03:36Z</time>
      </trkpt>
      <trkpt lat="44.58937" lon="2.6005">
        <ele>664.5</ele>
        <time>2014-05-30T10:03:56Z</time>
      </trkpt>
      <trkpt lat="44.58928" lon="2.60024">
        <ele>665.1</ele>
        <time>2014-05-30T10:04:11Z</time>
      </trkpt>
      <trkpt lat="44.58933" lon="2.59999">
        <ele>665.9</ele>
        <time>2014-05-30T10:04:27Z</time>
      </trkpt>
      <trkpt lat="44.58954" lon="2.60031">
        <ele>681.8</ele>
        <time>2014-05-30T10:05:02Z</time>
      </trkpt>
      <trkpt lat="44.58954" lon="2.60031">
        <ele>681.8</ele>
        <time>2014-05-30T10:05:10Z</time>
      </trkpt>
      <trkpt lat="44.58954" lon="2.60031">
        <ele>681.8</ele>
        <time>2014-05-30T10:05:11Z</time>
      </trkpt>
      <trkpt lat="44.58968" lon="2.60048">
        <ele>671.5</ele>
        <time>2014-05-30T10:05:21Z</time>
      </trkpt>
      <trkpt lat="44.58978" lon="2.60055">
        <ele>670.3</ele>
        <time>2014-05-30T10:05:29Z</time>
      </trkpt>
      <trkpt lat="44.58999" lon="2.60099">
        <ele>673.5</ele>
        <time>2014-05-30T10:06:11Z</time>
      </trkpt>
      <trkpt lat="44.59026" lon="2.60087">
        <ele>676.2</ele>
        <time>2014-05-30T10:06:24Z</time>
      </trkpt>
      <trkpt lat="44.59037" lon="2.60077">
        <ele>671.6</ele>
        <time>2014-05-30T10:06:35Z</time>
      </trkpt>
      <trkpt lat="44.59063" lon="2.60067">
        <ele>666.4</ele>
        <time>2014-05-30T10:07:20Z</time>
      </trkpt>
      <trkpt lat="44.59076" lon="2.60044">
        <ele>669.3</ele>
        <time>2014-05-30T10:07:26Z</time>
      </trkpt>
      <trkpt lat="44.59101" lon="2.60023">
        <ele>672.6</ele>
        <time>2014-05-30T10:08:02Z</time>
      </trkpt>
      <trkpt lat="44.59122" lon="2.60022">
        <ele>675.9</ele>
        <time>2014-05-30T10:08:17Z</time>
      </trkpt>
      <trkpt lat="44.59122" lon="2.60022">
        <ele>675.9</ele>
        <time>2014-05-30T10:08:25Z</time>
      </trkpt>
      <trkpt lat="44.59122" lon="2.60022">
        <ele>675.9</ele>
        <time>2014-05-30T10:08:26Z</time>
      </trkpt>
      <trkpt lat="44.59144" lon="2.60012">
        <ele>661.9</ele>
        <time>2014-05-30T10:11:28Z</time>
      </trkpt>
      <trkpt lat="44.5915" lon="2.59999">
        <ele>660</ele>
        <time>2014-05-30T10:11:35Z</time>
      </trkpt>
      <trkpt lat="44.59164" lon="2.6">
        <ele>664</ele>
        <time>2014-05-30T10:11:42Z</time>
      </trkpt>
      <trkpt lat="44.59161" lon="2.59988">
        <ele>662.4</ele>
        <time>2014-05-30T10:11:51Z</time>
      </trkpt>
      <trkpt lat="44.59173" lon="2.59965">
        <ele>661.5</ele>
        <time>2014-05-30T10:12:38Z</time>
      </trkpt>
      <trkpt lat="44.59173" lon="2.59962">
        <ele>660.5</ele>
        <time>2014-05-30T10:12:41Z</time>
      </trkpt>
      <trkpt lat="44.59181" lon="2.5996">
        <ele>662.4</ele>
        <time>2014-05-30T10:12:56Z</time>
      </trkpt>
      <trkpt lat="44.59192" lon="2.59948">
        <ele>662.6</ele>
        <time>2014-05-30T10:12:59Z</time>
      </trkpt>
      <trkpt lat="44.59196" lon="2.59937">
        <ele>663.4</ele>
        <time>2014-05-30T10:13:15Z</time>
      </trkpt>
      <trkpt lat="44.59207" lon="2.59931">
        <ele>666</ele>
        <time>2014-05-30T10:13:27Z</time>
      </trkpt>
      <trkpt lat="44.5924" lon="2.59927">
        <ele>671.9</ele>
        <time>2014-05-30T10:13:42Z</time>
      </trkpt>
      <trkpt lat="44.59242" lon="2.59928">
        <ele>671.4</ele>
        <time>2014-05-30T10:13:43Z</time>
      </trkpt>
      <trkpt lat="44.5924" lon="2.59927">
        <ele>671.9</ele>
        <time>2014-05-30T10:13:49Z</time>
      </trkpt>
      <trkpt lat="44.59236" lon="2.59878">
        <ele>659.9</ele>
        <time>2014-05-30T10:15:16Z</time>
      </trkpt>
      <trkpt lat="44.59255" lon="2.59851">
        <ele>655.9</ele>
        <time>2014-05-30T10:15:21Z</time>
      </trkpt>
      <trkpt lat="44.59266" lon="2.59832">
        <ele>665</ele>
        <time>2014-05-30T10:15:27Z</time>
      </trkpt>
      <trkpt lat="44.59283" lon="2.59814">
        <ele>679</ele>
        <time>2014-05-30T10:15:37Z</time>
      </trkpt>
      <trkpt lat="44.59289" lon="2.59798">
        <ele>675.9</ele>
        <time>2014-05-30T10:15:51Z</time>
      </trkpt>
      <trkpt lat="44.59286" lon="2.59793">
        <ele>673.6</ele>
        <time>2014-05-30T10:15:56Z</time>
      </trkpt>
      <trkpt lat="44.5929" lon="2.5979">
        <ele>671.8</ele>
        <time>2014-05-30T10:16:09Z</time>
      </trkpt>
      <trkpt lat="44.59297" lon="2.5977">
        <ele>673.9</ele>
        <time>2014-05-30T10:16:31Z</time>
      </trkpt>
      <trkpt lat="44.59297" lon="2.5977">
        <ele>673.9</ele>
        <time>2014-05-30T10:16:37Z</time>
      </trkpt>
      <trkpt lat="44.59297" lon="2.5977">
        <ele>673.9</ele>
        <time>2014-05-30T10:16:39Z</time>
      </trkpt>
      <trkpt lat="44.59313" lon="2.59756">
        <ele>680.1</ele>
        <time>2014-05-30T10:16:49Z</time>
      </trkpt>
      <trkpt lat="44.59322" lon="2.59747">
        <ele>683.4</ele>
        <time>2014-05-30T10:16:56Z</time>
      </trkpt>
      <trkpt lat="44.59326" lon="2.59745">
        <ele>685.5</ele>
        <time>2014-05-30T10:16:58Z</time>
      </trkpt>
      <trkpt lat="44.5933" lon="2.59748">
        <ele>685.4</ele>
        <time>2014-05-30T10:17:07Z</time>
      </trkpt>
      <trkpt lat="44.59343" lon="2.59748">
        <ele>686.3</ele>
        <time>2014-05-30T10:17:34Z</time>
      </trkpt>
      <trkpt lat="44.59382" lon="2.59775">
        <ele>692.4</ele>
        <time>2014-05-30T10:17:56Z</time>
      </trkpt>
      <trkpt lat="44.59394" lon="2.59781">
        <ele>690.1</ele>
        <time>2014-05-30T10:18:08Z</time>
      </trkpt>
      <trkpt lat="44.59409" lon="2.59787">
        <ele>688.3</ele>
        <time>2014-05-30T10:18:22Z</time>
      </trkpt>
      <trkpt lat="44.59424" lon="2.59793">
        <ele>685.6</ele>
        <time>2014-05-30T10:18:36Z</time>
      </trkpt>
      <trkpt lat="44.59437" lon="2.59789">
        <ele>683.1</ele>
        <time>2014-05-30T10:18:50Z</time>
      </trkpt>
      <trkpt lat="44.59449" lon="2.59776">
        <ele>682.8</ele>
        <time>2014-05-30T10:19:06Z</time>
      </trkpt>
      <trkpt lat="44.59461" lon="2.59757">
        <ele>684.6</ele>
        <time>2014-05-30T10:19:25Z</time>
      </trkpt>
      <trkpt lat="44.59466" lon="2.59735">
        <ele>683.4</ele>
        <time>2014-05-30T10:19:42Z</time>
      </trkpt>
      <trkpt lat="44.5947" lon="2.59711">
        <ele>687.1</ele>
        <time>2014-05-30T10:19:57Z</time>
      </trkpt>
      <trkpt lat="44.59467" lon="2.59688">
        <ele>687.6</ele>
        <time>2014-05-30T10:20:15Z</time>
      </trkpt>
      <trkpt lat="44.59462" lon="2.5967">
        <ele>688.4</ele>
        <time>2014-05-30T10:20:28Z</time>
      </trkpt>
      <trkpt lat="44.59463" lon="2.59663">
        <ele>688.2</ele>
        <time>2014-05-30T10:20:34Z</time>
      </trkpt>
      <trkpt lat="44.59462" lon="2.59649">
        <ele>687.3</ele>
        <time>2014-05-30T10:20:46Z</time>
      </trkpt>
      <trkpt lat="44.59463" lon="2.59626">
        <ele>689.5</ele>
        <time>2014-05-30T10:20:57Z</time>
      </trkpt>
      <trkpt lat="44.59463" lon="2.59597">
        <ele>691.5</ele>
        <time>2014-05-30T10:21:13Z</time>
      </trkpt>
      <trkpt lat="44.59458" lon="2.59577">
        <ele>690.6</ele>
        <time>2014-05-30T10:21:27Z</time>
      </trkpt>
      <trkpt lat="44.59452" lon="2.59546">
        <ele>691.9</ele>
        <time>2014-05-30T10:21:45Z</time>
      </trkpt>
      <trkpt lat="44.59448" lon="2.59516">
        <ele>692.4</ele>
        <time>2014-05-30T10:22:03Z</time>
      </trkpt>
      <trkpt lat="44.59436" lon="2.59491">
        <ele>690.6</ele>
        <time>2014-05-30T10:22:20Z</time>
      </trkpt>
      <trkpt lat="44.59439" lon="2.59466">
        <ele>696.7</ele>
        <time>2014-05-30T10:22:35Z</time>
      </trkpt>
      <trkpt lat="44.59437" lon="2.59456">
        <ele>693.4</ele>
        <time>2014-05-30T10:22:43Z</time>
      </trkpt>
      <trkpt lat="44.5944" lon="2.59456">
        <ele>692.6</ele>
        <time>2014-05-30T10:22:51Z</time>
      </trkpt>
      <trkpt lat="44.59426" lon="2.59442">
        <ele>692.7</ele>
        <time>2014-05-30T10:24:06Z</time>
      </trkpt>
      <trkpt lat="44.59407" lon="2.59437">
        <ele>690.9</ele>
        <time>2014-05-30T10:24:27Z</time>
      </trkpt>
      <trkpt lat="44.59395" lon="2.59438">
        <ele>692.3</ele>
        <time>2014-05-30T10:24:35Z</time>
      </trkpt>
      <trkpt lat="44.5939" lon="2.59439">
        <ele>692.6</ele>
        <time>2014-05-30T10:24:39Z</time>
      </trkpt>
      <trkpt lat="44.59383" lon="2.59438">
        <ele>692.8</ele>
        <time>2014-05-30T10:24:49Z</time>
      </trkpt>
      <trkpt lat="44.59361" lon="2.59427">
        <ele>690.8</ele>
        <time>2014-05-30T10:25:12Z</time>
      </trkpt>
      <trkpt lat="44.59347" lon="2.59421">
        <ele>691.1</ele>
        <time>2014-05-30T10:25:20Z</time>
      </trkpt>
      <trkpt lat="44.5934" lon="2.5942">
        <ele>692.3</ele>
        <time>2014-05-30T10:25:29Z</time>
      </trkpt>
      <trkpt lat="44.59339" lon="2.59419">
        <ele>692.1</ele>
        <time>2014-05-30T10:25:38Z</time>
      </trkpt>
      <trkpt lat="44.59325" lon="2.59407">
        <ele>692.8</ele>
        <time>2014-05-30T10:25:52Z</time>
      </trkpt>
      <trkpt lat="44.59313" lon="2.59392">
        <ele>691.9</ele>
        <time>2014-05-30T10:26:03Z</time>
      </trkpt>
      <trkpt lat="44.59307" lon="2.59386">
        <ele>692.5</ele>
        <time>2014-05-30T10:26:12Z</time>
      </trkpt>
      <trkpt lat="44.59295" lon="2.59372">
        <ele>689.9</ele>
        <time>2014-05-30T10:26:26Z</time>
      </trkpt>
      <trkpt lat="44.59291" lon="2.59347">
        <ele>685.8</ele>
        <time>2014-05-30T10:26:45Z</time>
      </trkpt>
      <trkpt lat="44.59291" lon="2.59329">
        <ele>689</ele>
        <time>2014-05-30T10:26:54Z</time>
      </trkpt>
      <trkpt lat="44.5929" lon="2.59303">
        <ele>682.6</ele>
        <time>2014-05-30T10:27:11Z</time>
      </trkpt>
      <trkpt lat="44.59295" lon="2.59283">
        <ele>683.6</ele>
        <time>2014-05-30T10:27:24Z</time>
      </trkpt>
      <trkpt lat="44.59297" lon="2.59252">
        <ele>680.4</ele>
        <time>2014-05-30T10:27:44Z</time>
      </trkpt>
      <trkpt lat="44.593" lon="2.59231">
        <ele>682.6</ele>
        <time>2014-05-30T10:27:58Z</time>
      </trkpt>
      <trkpt lat="44.59303" lon="2.59204">
        <ele>686.1</ele>
        <time>2014-05-30T10:28:16Z</time>
      </trkpt>
      <trkpt lat="44.59305" lon="2.59187">
        <ele>687.6</ele>
        <time>2014-05-30T10:28:28Z</time>
      </trkpt>
      <trkpt lat="44.59303" lon="2.59167">
        <ele>683.1</ele>
        <time>2014-05-30T10:28:42Z</time>
      </trkpt>
      <trkpt lat="44.59305" lon="2.59143">
        <ele>682.1</ele>
        <time>2014-05-30T10:28:58Z</time>
      </trkpt>
      <trkpt lat="44.59319" lon="2.59129">
        <ele>683.2</ele>
        <time>2014-05-30T10:29:12Z</time>
      </trkpt>
      <trkpt lat="44.59336" lon="2.59123">
        <ele>684.2</ele>
        <time>2014-05-30T10:29:29Z</time>
      </trkpt>
      <trkpt lat="44.59348" lon="2.59109">
        <ele>685.8</ele>
        <time>2014-05-30T10:29:45Z</time>
      </trkpt>
      <trkpt lat="44.59366" lon="2.59101">
        <ele>687.1</ele>
        <time>2014-05-30T10:30:05Z</time>
      </trkpt>
      <trkpt lat="44.59366" lon="2.59101">
        <ele>687.1</ele>
        <time>2014-05-30T10:30:12Z</time>
      </trkpt>
      <trkpt lat="44.59366" lon="2.59101">
        <ele>687.1</ele>
        <time>2014-05-30T10:30:13Z</time>
      </trkpt>
      <trkpt lat="44.59383" lon="2.59099">
        <ele>688.1</ele>
        <time>2014-05-30T10:30:27Z</time>
      </trkpt>
      <trkpt lat="44.59395" lon="2.591">
        <ele>686.5</ele>
        <time>2014-05-30T10:30:35Z</time>
      </trkpt>
      <trkpt lat="44.59395" lon="2.591">
        <ele>686.5</ele>
        <time>2014-05-30T10:30:42Z</time>
      </trkpt>
      <trkpt lat="44.59395" lon="2.591">
        <ele>686.5</ele>
        <time>2014-05-30T10:30:43Z</time>
      </trkpt>
      <trkpt lat="44.59402" lon="2.59067">
        <ele>691.5</ele>
        <time>2014-05-30T10:31:23Z</time>
      </trkpt>
      <trkpt lat="44.59403" lon="2.59047">
        <ele>695.3</ele>
        <time>2014-05-30T10:31:40Z</time>
      </trkpt>
      <trkpt lat="44.59396" lon="2.59031">
        <ele>697.3</ele>
        <time>2014-05-30T10:31:58Z</time>
      </trkpt>
      <trkpt lat="44.59394" lon="2.59027">
        <ele>696.4</ele>
        <time>2014-05-30T10:32:04Z</time>
      </trkpt>
      <trkpt lat="44.59396" lon="2.59031">
        <ele>697.3</ele>
        <time>2014-05-30T10:32:12Z</time>
      </trkpt>
      <trkpt lat="44.59393" lon="2.59011">
        <ele>699.8</ele>
        <time>2014-05-30T10:32:20Z</time>
      </trkpt>
      <trkpt lat="44.59401" lon="2.58992">
        <ele>696.7</ele>
        <time>2014-05-30T10:32:34Z</time>
      </trkpt>
      <trkpt lat="44.59406" lon="2.58972">
        <ele>700.9</ele>
        <time>2014-05-30T10:32:48Z</time>
      </trkpt>
      <trkpt lat="44.59406" lon="2.58963">
        <ele>699.7</ele>
        <time>2014-05-30T10:33:02Z</time>
      </trkpt>
      <trkpt lat="44.59412" lon="2.58942">
        <ele>702.4</ele>
        <time>2014-05-30T10:33:14Z</time>
      </trkpt>
      <trkpt lat="44.59409" lon="2.58924">
        <ele>698.6</ele>
        <time>2014-05-30T10:33:26Z</time>
      </trkpt>
      <trkpt lat="44.59409" lon="2.58924">
        <ele>698.6</ele>
        <time>2014-05-30T10:33:31Z</time>
      </trkpt>
      <trkpt lat="44.59409" lon="2.58924">
        <ele>698.6</ele>
        <time>2014-05-30T10:33:32Z</time>
      </trkpt>
      <trkpt lat="44.59422" lon="2.58902">
        <ele>702.8</ele>
        <time>2014-05-30T10:33:54Z</time>
      </trkpt>
      <trkpt lat="44.59425" lon="2.5888">
        <ele>705.5</ele>
        <time>2014-05-30T10:34:06Z</time>
      </trkpt>
      <trkpt lat="44.59455" lon="2.58851">
        <ele>701.7</ele>
        <time>2014-05-30T10:34:44Z</time>
      </trkpt>
      <trkpt lat="44.59456" lon="2.58854">
        <ele>703.7</ele>
        <time>2014-05-30T10:34:52Z</time>
      </trkpt>
      <trkpt lat="44.59456" lon="2.58854">
        <ele>653</ele>
        <time>2014-05-30T10:35:28Z</time>
      </trkpt>
      <trkpt lat="44.59456" lon="2.58854">
        <ele>653</ele>
        <time>2014-05-30T10:35:29Z</time>
      </trkpt>
      <trkpt lat="44.59432" lon="2.5886">
        <ele>656</ele>
        <time>2014-05-30T10:37:04Z</time>
      </trkpt>
      <trkpt lat="44.59432" lon="2.5886">
        <ele>698.4</ele>
        <time>2014-05-30T10:37:08Z</time>
      </trkpt>
      <trkpt lat="44.59453" lon="2.5885">
        <ele>688.5</ele>
        <time>2014-05-30T10:38:32Z</time>
      </trkpt>
      <trkpt lat="44.5949" lon="2.58805">
        <ele>674.7</ele>
        <time>2014-05-30T10:39:47Z</time>
      </trkpt>
      <trkpt lat="44.59492" lon="2.58781">
        <ele>688.5</ele>
        <time>2014-05-30T10:40:08Z</time>
      </trkpt>
      <trkpt lat="44.59487" lon="2.58768">
        <ele>692</ele>
        <time>2014-05-30T10:40:18Z</time>
      </trkpt>
      <trkpt lat="44.59468" lon="2.58745">
        <ele>682.6</ele>
        <time>2014-05-30T10:40:34Z</time>
      </trkpt>
      <trkpt lat="44.59469" lon="2.58725">
        <ele>675.2</ele>
        <time>2014-05-30T10:40:49Z</time>
      </trkpt>
      <trkpt lat="44.59469" lon="2.58725">
        <ele>675.2</ele>
        <time>2014-05-30T10:40:57Z</time>
      </trkpt>
      <trkpt lat="44.59469" lon="2.58725">
        <ele>675.2</ele>
        <time>2014-05-30T10:40:58Z</time>
      </trkpt>
      <trkpt lat="44.59472" lon="2.58706">
        <ele>664.8</ele>
        <time>2014-05-30T10:42:17Z</time>
      </trkpt>
      <trkpt lat="44.59475" lon="2.58684">
        <ele>670.8</ele>
        <time>2014-05-30T10:42:32Z</time>
      </trkpt>
      <trkpt lat="44.59476" lon="2.58668">
        <ele>674.1</ele>
        <time>2014-05-30T10:42:41Z</time>
      </trkpt>
      <trkpt lat="44.59482" lon="2.58652">
        <ele>675.5</ele>
        <time>2014-05-30T10:42:53Z</time>
      </trkpt>
      <trkpt lat="44.5949" lon="2.58647">
        <ele>681</ele>
        <time>2014-05-30T10:42:58Z</time>
      </trkpt>
      <trkpt lat="44.59493" lon="2.58649">
        <ele>684.2</ele>
        <time>2014-05-30T10:43:13Z</time>
      </trkpt>
      <trkpt lat="44.59502" lon="2.58645">
        <ele>681.3</ele>
        <time>2014-05-30T10:43:22Z</time>
      </trkpt>
      <trkpt lat="44.59508" lon="2.58634">
        <ele>677.2</ele>
        <time>2014-05-30T10:43:34Z</time>
      </trkpt>
      <trkpt lat="44.59517" lon="2.58626">
        <ele>670.1</ele>
        <time>2014-05-30T10:43:41Z</time>
      </trkpt>
      <trkpt lat="44.59531" lon="2.58599">
        <ele>664.5</ele>
        <time>2014-05-30T10:44:00Z</time>
      </trkpt>
      <trkpt lat="44.59545" lon="2.58573">
        <ele>671.4</ele>
        <time>2014-05-30T10:44:15Z</time>
      </trkpt>
      <trkpt lat="44.59565" lon="2.5857">
        <ele>681</ele>
        <time>2014-05-30T10:44:33Z</time>
      </trkpt>
      <trkpt lat="44.5958" lon="2.5855">
        <ele>681</ele>
        <time>2014-05-30T10:44:49Z</time>
      </trkpt>
      <trkpt lat="44.59592" lon="2.58546">
        <ele>681.9</ele>
        <time>2014-05-30T10:44:59Z</time>
      </trkpt>
      <trkpt lat="44.59603" lon="2.5855">
        <ele>683</ele>
        <time>2014-05-30T10:45:07Z</time>
      </trkpt>
      <trkpt lat="44.59608" lon="2.58551">
        <ele>684</ele>
        <time>2014-05-30T10:45:11Z</time>
      </trkpt>
      <trkpt lat="44.59613" lon="2.58537">
        <ele>683.6</ele>
        <time>2014-05-30T10:45:23Z</time>
      </trkpt>
      <trkpt lat="44.59629" lon="2.58528">
        <ele>683.8</ele>
        <time>2014-05-30T10:45:34Z</time>
      </trkpt>
      <trkpt lat="44.59637" lon="2.58507">
        <ele>675</ele>
        <time>2014-05-30T10:45:51Z</time>
      </trkpt>
      <trkpt lat="44.59653" lon="2.58486">
        <ele>674.9</ele>
        <time>2014-05-30T10:46:03Z</time>
      </trkpt>
      <trkpt lat="44.59665" lon="2.58468">
        <ele>677.6</ele>
        <time>2014-05-30T10:46:15Z</time>
      </trkpt>
      <trkpt lat="44.59678" lon="2.58448">
        <ele>677.2</ele>
        <time>2014-05-30T10:46:30Z</time>
      </trkpt>
      <trkpt lat="44.59693" lon="2.58441">
        <ele>682.1</ele>
        <time>2014-05-30T10:46:43Z</time>
      </trkpt>
      <trkpt lat="44.59709" lon="2.58439">
        <ele>689</ele>
        <time>2014-05-30T10:46:53Z</time>
      </trkpt>
      <trkpt lat="44.59717" lon="2.58432">
        <ele>688.1</ele>
        <time>2014-05-30T10:46:56Z</time>
      </trkpt>
      <trkpt lat="44.59714" lon="2.58433">
        <ele>685.6</ele>
        <time>2014-05-30T10:47:02Z</time>
      </trkpt>
      <trkpt lat="44.59745" lon="2.58427">
        <ele>676.3</ele>
        <time>2014-05-30T10:47:40Z</time>
      </trkpt>
      <trkpt lat="44.59763" lon="2.5842">
        <ele>681.9</ele>
        <time>2014-05-30T10:48:00Z</time>
      </trkpt>
      <trkpt lat="44.59778" lon="2.5841">
        <ele>683.2</ele>
        <time>2014-05-30T10:48:14Z</time>
      </trkpt>
      <trkpt lat="44.59799" lon="2.58399">
        <ele>686.3</ele>
        <time>2014-05-30T10:48:33Z</time>
      </trkpt>
      <trkpt lat="44.59818" lon="2.58403">
        <ele>687.2</ele>
        <time>2014-05-30T10:48:48Z</time>
      </trkpt>
      <trkpt lat="44.59831" lon="2.58392">
        <ele>688.9</ele>
        <time>2014-05-30T10:49:01Z</time>
      </trkpt>
      <trkpt lat="44.59839" lon="2.58386">
        <ele>687.7</ele>
        <time>2014-05-30T10:49:12Z</time>
      </trkpt>
      <trkpt lat="44.59854" lon="2.58374">
        <ele>694.6</ele>
        <time>2014-05-30T10:49:25Z</time>
      </trkpt>
      <trkpt lat="44.59874" lon="2.5838">
        <ele>697</ele>
        <time>2014-05-30T10:49:36Z</time>
      </trkpt>
      <trkpt lat="44.5988" lon="2.5838">
        <ele>696.8</ele>
        <time>2014-05-30T10:49:38Z</time>
      </trkpt>
      <trkpt lat="44.59874" lon="2.5838">
        <ele>697</ele>
        <time>2014-05-30T10:49:44Z</time>
      </trkpt>
      <trkpt lat="44.59874" lon="2.58357">
        <ele>690.5</ele>
        <time>2014-05-30T10:49:48Z</time>
      </trkpt>
      <trkpt lat="44.59877" lon="2.58342">
        <ele>690</ele>
        <time>2014-05-30T10:49:55Z</time>
      </trkpt>
      <trkpt lat="44.59899" lon="2.58369">
        <ele>689.8</ele>
        <time>2014-05-30T10:50:38Z</time>
      </trkpt>
      <trkpt lat="44.59917" lon="2.58369">
        <ele>689.5</ele>
        <time>2014-05-30T10:50:47Z</time>
      </trkpt>
      <trkpt lat="44.5993" lon="2.58375">
        <ele>686.9</ele>
        <time>2014-05-30T10:51:01Z</time>
      </trkpt>
      <trkpt lat="44.59926" lon="2.58437">
        <ele>686.8</ele>
        <time>2014-05-30T10:51:14Z</time>
      </trkpt>
      <trkpt lat="44.59926" lon="2.58437">
        <ele>686.8</ele>
        <time>2014-05-30T10:51:20Z</time>
      </trkpt>
      <trkpt lat="44.59939" lon="2.58393">
        <ele>684.7</ele>
        <time>2014-05-30T10:51:28Z</time>
      </trkpt>
      <trkpt lat="44.59955" lon="2.58412">
        <ele>685.8</ele>
        <time>2014-05-30T10:51:44Z</time>
      </trkpt>
      <trkpt lat="44.59963" lon="2.58415">
        <ele>691</ele>
        <time>2014-05-30T10:51:48Z</time>
      </trkpt>
      <trkpt lat="44.5997" lon="2.58411">
        <ele>693.7</ele>
        <time>2014-05-30T10:51:57Z</time>
      </trkpt>
      <trkpt lat="44.59981" lon="2.58403">
        <ele>693.4</ele>
        <time>2014-05-30T10:52:09Z</time>
      </trkpt>
      <trkpt lat="44.59985" lon="2.58383">
        <ele>689.6</ele>
        <time>2014-05-30T10:52:25Z</time>
      </trkpt>
      <trkpt lat="44.5999" lon="2.58368">
        <ele>692.8</ele>
        <time>2014-05-30T10:52:36Z</time>
      </trkpt>
      <trkpt lat="44.59999" lon="2.58352">
        <ele>691.8</ele>
        <time>2014-05-30T10:52:52Z</time>
      </trkpt>
      <trkpt lat="44.60015" lon="2.58355">
        <ele>686.6</ele>
        <time>2014-05-30T10:53:12Z</time>
      </trkpt>
      <trkpt lat="44.60024" lon="2.58339">
        <ele>684.3</ele>
        <time>2014-05-30T10:53:22Z</time>
      </trkpt>
      <trkpt lat="44.6004" lon="2.58334">
        <ele>685.5</ele>
        <time>2014-05-30T10:53:34Z</time>
      </trkpt>
      <trkpt lat="44.60062" lon="2.58331">
        <ele>691.6</ele>
        <time>2014-05-30T10:53:54Z</time>
      </trkpt>
      <trkpt lat="44.60076" lon="2.58326">
        <ele>693.6</ele>
        <time>2014-05-30T10:54:07Z</time>
      </trkpt>
      <trkpt lat="44.60096" lon="2.58321">
        <ele>694.4</ele>
        <time>2014-05-30T10:54:24Z</time>
      </trkpt>
      <trkpt lat="44.60112" lon="2.58318">
        <ele>693.2</ele>
        <time>2014-05-30T10:54:39Z</time>
      </trkpt>
      <trkpt lat="44.6013" lon="2.58318">
        <ele>693.7</ele>
        <time>2014-05-30T10:54:56Z</time>
      </trkpt>
      <trkpt lat="44.60138" lon="2.5832">
        <ele>690.7</ele>
        <time>2014-05-30T10:55:04Z</time>
      </trkpt>
      <trkpt lat="44.60156" lon="2.58322">
        <ele>690.3</ele>
        <time>2014-05-30T10:55:21Z</time>
      </trkpt>
      <trkpt lat="44.60169" lon="2.58354">
        <ele>701</ele>
        <time>2014-05-30T10:55:37Z</time>
      </trkpt>
      <trkpt lat="44.60169" lon="2.58354">
        <ele>701</ele>
        <time>2014-05-30T10:55:45Z</time>
      </trkpt>
      <trkpt lat="44.60182" lon="2.5835">
        <ele>697.1</ele>
        <time>2014-05-30T10:55:54Z</time>
      </trkpt>
      <trkpt lat="44.60193" lon="2.58365">
        <ele>695.4</ele>
        <time>2014-05-30T10:56:10Z</time>
      </trkpt>
      <trkpt lat="44.60199" lon="2.58384">
        <ele>697.5</ele>
        <time>2014-05-30T10:56:25Z</time>
      </trkpt>
      <trkpt lat="44.60211" lon="2.58405">
        <ele>704.9</ele>
        <time>2014-05-30T10:56:46Z</time>
      </trkpt>
      <trkpt lat="44.60216" lon="2.584">
        <ele>704.4</ele>
        <time>2014-05-30T10:56:51Z</time>
      </trkpt>
      <trkpt lat="44.60219" lon="2.58418">
        <ele>695</ele>
        <time>2014-05-30T10:57:06Z</time>
      </trkpt>
      <trkpt lat="44.60234" lon="2.58447">
        <ele>692</ele>
        <time>2014-05-30T10:57:35Z</time>
      </trkpt>
      <trkpt lat="44.6026" lon="2.58462">
        <ele>697.3</ele>
        <time>2014-05-30T10:59:20Z</time>
      </trkpt>
      <trkpt lat="44.60277" lon="2.58459">
        <ele>703.9</ele>
        <time>2014-05-30T10:59:38Z</time>
      </trkpt>
      <trkpt lat="44.60281" lon="2.58459">
        <ele>704.7</ele>
        <time>2014-05-30T10:59:42Z</time>
      </trkpt>
      <trkpt lat="44.60281" lon="2.58456">
        <ele>702.2</ele>
        <time>2014-05-30T10:59:51Z</time>
      </trkpt>
      <trkpt lat="44.60293" lon="2.58457">
        <ele>701.8</ele>
        <time>2014-05-30T11:00:28Z</time>
      </trkpt>
      <trkpt lat="44.60307" lon="2.58453">
        <ele>702.2</ele>
        <time>2014-05-30T11:00:42Z</time>
      </trkpt>
      <trkpt lat="44.60315" lon="2.58449">
        <ele>701.9</ele>
        <time>2014-05-30T11:00:51Z</time>
      </trkpt>
      <trkpt lat="44.60336" lon="2.58447">
        <ele>704.3</ele>
        <time>2014-05-30T11:01:09Z</time>
      </trkpt>
      <trkpt lat="44.60349" lon="2.58444">
        <ele>701.8</ele>
        <time>2014-05-30T11:01:23Z</time>
      </trkpt>
      <trkpt lat="44.60364" lon="2.58439">
        <ele>701.8</ele>
        <time>2014-05-30T11:01:37Z</time>
      </trkpt>
      <trkpt lat="44.60378" lon="2.58434">
        <ele>702.7</ele>
        <time>2014-05-30T11:01:51Z</time>
      </trkpt>
      <trkpt lat="44.60398" lon="2.5842">
        <ele>701.5</ele>
        <time>2014-05-30T11:02:10Z</time>
      </trkpt>
      <trkpt lat="44.60411" lon="2.58408">
        <ele>698.7</ele>
        <time>2014-05-30T11:02:25Z</time>
      </trkpt>
      <trkpt lat="44.60426" lon="2.5839">
        <ele>696.9</ele>
        <time>2014-05-30T11:02:43Z</time>
      </trkpt>
      <trkpt lat="44.60447" lon="2.58384">
        <ele>697.9</ele>
        <time>2014-05-30T11:02:58Z</time>
      </trkpt>
      <trkpt lat="44.6046" lon="2.58361">
        <ele>693.8</ele>
        <time>2014-05-30T11:03:16Z</time>
      </trkpt>
      <trkpt lat="44.60465" lon="2.58359">
        <ele>691.8</ele>
        <time>2014-05-30T11:03:19Z</time>
      </trkpt>
      <trkpt lat="44.60474" lon="2.58354">
        <ele>696.2</ele>
        <time>2014-05-30T11:03:34Z</time>
      </trkpt>
      <trkpt lat="44.60483" lon="2.58358">
        <ele>699.8</ele>
        <time>2014-05-30T11:03:43Z</time>
      </trkpt>
      <trkpt lat="44.60488" lon="2.58366">
        <ele>696.1</ele>
        <time>2014-05-30T11:03:54Z</time>
      </trkpt>
      <trkpt lat="44.60488" lon="2.58366">
        <ele>696.1</ele>
        <time>2014-05-30T11:04:01Z</time>
      </trkpt>
      <trkpt lat="44.60488" lon="2.58366">
        <ele>696.1</ele>
        <time>2014-05-30T11:04:02Z</time>
      </trkpt>
      <trkpt lat="44.60488" lon="2.58366">
        <ele>644</ele>
        <time>2014-05-30T11:05:00Z</time>
      </trkpt>
      <trkpt lat="44.60488" lon="2.58366">
        <ele>644</ele>
        <time>2014-05-30T11:05:04Z</time>
      </trkpt>
      <trkpt lat="44.6048" lon="2.58325">
        <ele>648</ele>
        <time>2014-05-30T12:00:14Z</time>
      </trkpt>
      <trkpt lat="44.6048" lon="2.58325">
        <ele>703.8</ele>
        <time>2014-05-30T12:00:27Z</time>
      </trkpt>
      <trkpt lat="44.60474" lon="2.58308">
        <ele>700</ele>
        <time>2014-05-30T12:00:37Z</time>
      </trkpt>
      <trkpt lat="44.60477" lon="2.58304">
        <ele>701.8</ele>
        <time>2014-05-30T12:00:41Z</time>
      </trkpt>
      <trkpt lat="44.60481" lon="2.58289">
        <ele>696.5</ele>
        <time>2014-05-30T12:00:56Z</time>
      </trkpt>
      <trkpt lat="44.60487" lon="2.58287">
        <ele>699.3</ele>
        <time>2014-05-30T12:01:00Z</time>
      </trkpt>
      <trkpt lat="44.60481" lon="2.5828">
        <ele>697.8</ele>
        <time>2014-05-30T12:01:08Z</time>
      </trkpt>
      <trkpt lat="44.60455" lon="2.58267">
        <ele>705.2</ele>
        <time>2014-05-30T12:02:13Z</time>
      </trkpt>
      <trkpt lat="44.60441" lon="2.5825">
        <ele>715.6</ele>
        <time>2014-05-30T12:02:27Z</time>
      </trkpt>
      <trkpt lat="44.6044" lon="2.58234">
        <ele>717.5</ele>
        <time>2014-05-30T12:02:43Z</time>
      </trkpt>
      <trkpt lat="44.6044" lon="2.58234">
        <ele>717.5</ele>
        <time>2014-05-30T12:02:51Z</time>
      </trkpt>
      <trkpt lat="44.6044" lon="2.58234">
        <ele>717.5</ele>
        <time>2014-05-30T12:02:53Z</time>
      </trkpt>
      <trkpt lat="44.60426" lon="2.5821">
        <ele>725.6</ele>
        <time>2014-05-30T12:03:18Z</time>
      </trkpt>
      <trkpt lat="44.60426" lon="2.5821">
        <ele>725.6</ele>
        <time>2014-05-30T12:03:23Z</time>
      </trkpt>
      <trkpt lat="44.60426" lon="2.5821">
        <ele>725.6</ele>
        <time>2014-05-30T12:03:25Z</time>
      </trkpt>
      <trkpt lat="44.60413" lon="2.58193">
        <ele>717.8</ele>
        <time>2014-05-30T12:04:06Z</time>
      </trkpt>
      <trkpt lat="44.60398" lon="2.58165">
        <ele>717.1</ele>
        <time>2014-05-30T12:05:34Z</time>
      </trkpt>
      <trkpt lat="44.60392" lon="2.58142">
        <ele>726.9</ele>
        <time>2014-05-30T12:05:59Z</time>
      </trkpt>
      <trkpt lat="44.60389" lon="2.58133">
        <ele>728.7</ele>
        <time>2014-05-30T12:06:07Z</time>
      </trkpt>
      <trkpt lat="44.60373" lon="2.58102">
        <ele>732.3</ele>
        <time>2014-05-30T12:06:44Z</time>
      </trkpt>
      <trkpt lat="44.60359" lon="2.58066">
        <ele>732.5</ele>
        <time>2014-05-30T12:07:17Z</time>
      </trkpt>
      <trkpt lat="44.60357" lon="2.5804">
        <ele>731.4</ele>
        <time>2014-05-30T12:07:35Z</time>
      </trkpt>
      <trkpt lat="44.60361" lon="2.58009">
        <ele>732.9</ele>
        <time>2014-05-30T12:07:53Z</time>
      </trkpt>
      <trkpt lat="44.60363" lon="2.57973">
        <ele>729.9</ele>
        <time>2014-05-30T12:08:23Z</time>
      </trkpt>
      <trkpt lat="44.60366" lon="2.57947">
        <ele>728.7</ele>
        <time>2014-05-30T12:08:43Z</time>
      </trkpt>
      <trkpt lat="44.6037" lon="2.57921">
        <ele>727.2</ele>
        <time>2014-05-30T12:09:01Z</time>
      </trkpt>
      <trkpt lat="44.60371" lon="2.57896">
        <ele>730.5</ele>
        <time>2014-05-30T12:09:19Z</time>
      </trkpt>
      <trkpt lat="44.60374" lon="2.57867">
        <ele>727.6</ele>
        <time>2014-05-30T12:09:38Z</time>
      </trkpt>
      <trkpt lat="44.60376" lon="2.57834">
        <ele>726.5</ele>
        <time>2014-05-30T12:09:58Z</time>
      </trkpt>
      <trkpt lat="44.60401" lon="2.57806">
        <ele>730.1</ele>
        <time>2014-05-30T12:10:04Z</time>
      </trkpt>
      <trkpt lat="44.60367" lon="2.57819">
        <ele>729.4</ele>
        <time>2014-05-30T12:10:13Z</time>
      </trkpt>
      <trkpt lat="44.60375" lon="2.57814">
        <ele>730.9</ele>
        <time>2014-05-30T12:10:19Z</time>
      </trkpt>
      <trkpt lat="44.60374" lon="2.57795">
        <ele>726.1</ele>
        <time>2014-05-30T12:10:27Z</time>
      </trkpt>
      <trkpt lat="44.60376" lon="2.57772">
        <ele>726.6</ele>
        <time>2014-05-30T12:10:41Z</time>
      </trkpt>
      <trkpt lat="44.60379" lon="2.57749">
        <ele>731.5</ele>
        <time>2014-05-30T12:10:55Z</time>
      </trkpt>
      <trkpt lat="44.60382" lon="2.57738">
        <ele>729</ele>
        <time>2014-05-30T12:11:04Z</time>
      </trkpt>
      <trkpt lat="44.60382" lon="2.57733">
        <ele>729.1</ele>
        <time>2014-05-30T12:11:13Z</time>
      </trkpt>
      <trkpt lat="44.60385" lon="2.57698">
        <ele>728.1</ele>
        <time>2014-05-30T12:12:02Z</time>
      </trkpt>
      <trkpt lat="44.60385" lon="2.57698">
        <ele>728.1</ele>
        <time>2014-05-30T12:12:10Z</time>
      </trkpt>
      <trkpt lat="44.60385" lon="2.57698">
        <ele>728.1</ele>
        <time>2014-05-30T12:12:11Z</time>
      </trkpt>
      <trkpt lat="44.60384" lon="2.57676">
        <ele>727.1</ele>
        <time>2014-05-30T12:12:26Z</time>
      </trkpt>
      <trkpt lat="44.60386" lon="2.57652">
        <ele>726.3</ele>
        <time>2014-05-30T12:12:42Z</time>
      </trkpt>
      <trkpt lat="44.60387" lon="2.57637">
        <ele>726.2</ele>
        <time>2014-05-30T12:12:53Z</time>
      </trkpt>
      <trkpt lat="44.60387" lon="2.57611">
        <ele>725.3</ele>
        <time>2014-05-30T12:13:09Z</time>
      </trkpt>
      <trkpt lat="44.60389" lon="2.5758">
        <ele>724.8</ele>
        <time>2014-05-30T12:13:28Z</time>
      </trkpt>
      <trkpt lat="44.60387" lon="2.57552">
        <ele>725.4</ele>
        <time>2014-05-30T12:13:46Z</time>
      </trkpt>
      <trkpt lat="44.60382" lon="2.57521">
        <ele>726.7</ele>
        <time>2014-05-30T12:14:06Z</time>
      </trkpt>
      <trkpt lat="44.60379" lon="2.57502">
        <ele>728.2</ele>
        <time>2014-05-30T12:14:19Z</time>
      </trkpt>
      <trkpt lat="44.60377" lon="2.57484">
        <ele>728.8</ele>
        <time>2014-05-30T12:14:31Z</time>
      </trkpt>
      <trkpt lat="44.60375" lon="2.57464">
        <ele>728</ele>
        <time>2014-05-30T12:14:45Z</time>
      </trkpt>
      <trkpt lat="44.60377" lon="2.57441">
        <ele>731.9</ele>
        <time>2014-05-30T12:14:59Z</time>
      </trkpt>
      <trkpt lat="44.60378" lon="2.5742">
        <ele>731.4</ele>
        <time>2014-05-30T12:15:13Z</time>
      </trkpt>
      <trkpt lat="44.60377" lon="2.57396">
        <ele>732</ele>
        <time>2014-05-30T12:15:29Z</time>
      </trkpt>
      <trkpt lat="44.60375" lon="2.57378">
        <ele>729.5</ele>
        <time>2014-05-30T12:15:41Z</time>
      </trkpt>
      <trkpt lat="44.60374" lon="2.57354">
        <ele>728.4</ele>
        <time>2014-05-30T12:15:58Z</time>
      </trkpt>
      <trkpt lat="44.60379" lon="2.57332">
        <ele>729.9</ele>
        <time>2014-05-30T12:16:12Z</time>
      </trkpt>
      <trkpt lat="44.60378" lon="2.57308">
        <ele>727.3</ele>
        <time>2014-05-30T12:16:28Z</time>
      </trkpt>
      <trkpt lat="44.60379" lon="2.57286">
        <ele>725.4</ele>
        <time>2014-05-30T12:16:43Z</time>
      </trkpt>
      <trkpt lat="44.60381" lon="2.57265">
        <ele>724.8</ele>
        <time>2014-05-30T12:16:56Z</time>
      </trkpt>
      <trkpt lat="44.60381" lon="2.57254">
        <ele>723.5</ele>
        <time>2014-05-30T12:17:04Z</time>
      </trkpt>
      <trkpt lat="44.60381" lon="2.57254">
        <ele>723.5</ele>
        <time>2014-05-30T12:17:09Z</time>
      </trkpt>
      <trkpt lat="44.60381" lon="2.57254">
        <ele>723.5</ele>
        <time>2014-05-30T12:17:10Z</time>
      </trkpt>
      <trkpt lat="44.60383" lon="2.57231">
        <ele>720.3</ele>
        <time>2014-05-30T12:17:23Z</time>
      </trkpt>
      <trkpt lat="44.60385" lon="2.5721">
        <ele>715.6</ele>
        <time>2014-05-30T12:17:37Z</time>
      </trkpt>
      <trkpt lat="44.60394" lon="2.57185">
        <ele>713.7</ele>
        <time>2014-05-30T12:17:56Z</time>
      </trkpt>
      <trkpt lat="44.60398" lon="2.57172">
        <ele>714.3</ele>
        <time>2014-05-30T12:18:08Z</time>
      </trkpt>
      <trkpt lat="44.60397" lon="2.57172">
        <ele>714.7</ele>
        <time>2014-05-30T12:18:17Z</time>
      </trkpt>
      <trkpt lat="44.60391" lon="2.57139">
        <ele>712.4</ele>
        <time>2014-05-30T12:18:46Z</time>
      </trkpt>
      <trkpt lat="44.60379" lon="2.57119">
        <ele>711.4</ele>
        <time>2014-05-30T12:19:04Z</time>
      </trkpt>
      <trkpt lat="44.60366" lon="2.57105">
        <ele>709.3</ele>
        <time>2014-05-30T12:19:21Z</time>
      </trkpt>
      <trkpt lat="44.60355" lon="2.57093">
        <ele>707</ele>
        <time>2014-05-30T12:19:35Z</time>
      </trkpt>
      <trkpt lat="44.6034" lon="2.57078">
        <ele>704.7</ele>
        <time>2014-05-30T12:19:52Z</time>
      </trkpt>
      <trkpt lat="44.6033" lon="2.57054">
        <ele>701.8</ele>
        <time>2014-05-30T12:20:12Z</time>
      </trkpt>
      <trkpt lat="44.60329" lon="2.57034">
        <ele>699.9</ele>
        <time>2014-05-30T12:20:26Z</time>
      </trkpt>
      <trkpt lat="44.60327" lon="2.57012">
        <ele>698.9</ele>
        <time>2014-05-30T12:20:40Z</time>
      </trkpt>
      <trkpt lat="44.60328" lon="2.56998">
        <ele>698.2</ele>
        <time>2014-05-30T12:20:48Z</time>
      </trkpt>
      <trkpt lat="44.60331" lon="2.56972">
        <ele>695.7</ele>
        <time>2014-05-30T12:21:04Z</time>
      </trkpt>
      <trkpt lat="44.60336" lon="2.56945">
        <ele>695.9</ele>
        <time>2014-05-30T12:21:19Z</time>
      </trkpt>
      <trkpt lat="44.60342" lon="2.56928">
        <ele>695.6</ele>
        <time>2014-05-30T12:21:31Z</time>
      </trkpt>
      <trkpt lat="44.60348" lon="2.56904">
        <ele>694.7</ele>
        <time>2014-05-30T12:21:48Z</time>
      </trkpt>
      <trkpt lat="44.60353" lon="2.56874">
        <ele>695.8</ele>
        <time>2014-05-30T12:22:08Z</time>
      </trkpt>
      <trkpt lat="44.60363" lon="2.56846">
        <ele>698</ele>
        <time>2014-05-30T12:22:27Z</time>
      </trkpt>
      <trkpt lat="44.60368" lon="2.56827">
        <ele>698.9</ele>
        <time>2014-05-30T12:22:40Z</time>
      </trkpt>
      <trkpt lat="44.60373" lon="2.56804">
        <ele>699</ele>
        <time>2014-05-30T12:23:02Z</time>
      </trkpt>
      <trkpt lat="44.60374" lon="2.56794">
        <ele>698.4</ele>
        <time>2014-05-30T12:23:09Z</time>
      </trkpt>
      <trkpt lat="44.60375" lon="2.56768">
        <ele>696.9</ele>
        <time>2014-05-30T12:23:26Z</time>
      </trkpt>
      <trkpt lat="44.60376" lon="2.56741">
        <ele>695.4</ele>
        <time>2014-05-30T12:23:43Z</time>
      </trkpt>
      <trkpt lat="44.60374" lon="2.56713">
        <ele>695.2</ele>
        <time>2014-05-30T12:24:00Z</time>
      </trkpt>
      <trkpt lat="44.60374" lon="2.56699">
        <ele>695.9</ele>
        <time>2014-05-30T12:24:08Z</time>
      </trkpt>
      <trkpt lat="44.60372" lon="2.56672">
        <ele>695</ele>
        <time>2014-05-30T12:24:24Z</time>
      </trkpt>
      <trkpt lat="44.60371" lon="2.56646">
        <ele>694.3</ele>
        <time>2014-05-30T12:24:40Z</time>
      </trkpt>
      <trkpt lat="44.60369" lon="2.56619">
        <ele>695.6</ele>
        <time>2014-05-30T12:24:56Z</time>
      </trkpt>
      <trkpt lat="44.60368" lon="2.56597">
        <ele>695.4</ele>
        <time>2014-05-30T12:25:10Z</time>
      </trkpt>
      <trkpt lat="44.60365" lon="2.56573">
        <ele>695.2</ele>
        <time>2014-05-30T12:25:27Z</time>
      </trkpt>
      <trkpt lat="44.60364" lon="2.56551">
        <ele>693.4</ele>
        <time>2014-05-30T12:25:42Z</time>
      </trkpt>
      <trkpt lat="44.60363" lon="2.56525">
        <ele>693.2</ele>
        <time>2014-05-30T12:25:59Z</time>
      </trkpt>
      <trkpt lat="44.60365" lon="2.565">
        <ele>691.5</ele>
        <time>2014-05-30T12:26:16Z</time>
      </trkpt>
      <trkpt lat="44.60371" lon="2.56473">
        <ele>690</ele>
        <time>2014-05-30T12:26:33Z</time>
      </trkpt>
      <trkpt lat="44.60379" lon="2.56448">
        <ele>695.5</ele>
        <time>2014-05-30T12:26:45Z</time>
      </trkpt>
      <trkpt lat="44.60384" lon="2.56436">
        <ele>694.2</ele>
        <time>2014-05-30T12:26:58Z</time>
      </trkpt>
      <trkpt lat="44.60384" lon="2.56436">
        <ele>694.2</ele>
        <time>2014-05-30T12:27:05Z</time>
      </trkpt>
      <trkpt lat="44.60386" lon="2.56425">
        <ele>689.6</ele>
        <time>2014-05-30T12:27:08Z</time>
      </trkpt>
      <trkpt lat="44.60397" lon="2.56399">
        <ele>692</ele>
        <time>2014-05-30T12:27:22Z</time>
      </trkpt>
      <trkpt lat="44.60407" lon="2.56383">
        <ele>692.1</ele>
        <time>2014-05-30T12:27:35Z</time>
      </trkpt>
      <trkpt lat="44.60417" lon="2.56367">
        <ele>690.4</ele>
        <time>2014-05-30T12:27:48Z</time>
      </trkpt>
      <trkpt lat="44.60423" lon="2.56347">
        <ele>688.4</ele>
        <time>2014-05-30T12:28:02Z</time>
      </trkpt>
      <trkpt lat="44.60434" lon="2.5633">
        <ele>688.2</ele>
        <time>2014-05-30T12:28:15Z</time>
      </trkpt>
      <trkpt lat="44.60442" lon="2.56309">
        <ele>688.3</ele>
        <time>2014-05-30T12:28:30Z</time>
      </trkpt>
      <trkpt lat="44.60448" lon="2.56287">
        <ele>691.7</ele>
        <time>2014-05-30T12:28:44Z</time>
      </trkpt>
      <trkpt lat="44.60448" lon="2.56267">
        <ele>693.9</ele>
        <time>2014-05-30T12:29:01Z</time>
      </trkpt>
      <trkpt lat="44.60452" lon="2.5625">
        <ele>693</ele>
        <time>2014-05-30T12:29:10Z</time>
      </trkpt>
      <trkpt lat="44.60455" lon="2.56243">
        <ele>692.2</ele>
        <time>2014-05-30T12:29:18Z</time>
      </trkpt>
      <trkpt lat="44.60458" lon="2.56235">
        <ele>699.3</ele>
        <time>2014-05-30T12:29:31Z</time>
      </trkpt>
      <trkpt lat="44.60465" lon="2.56218">
        <ele>701.2</ele>
        <time>2014-05-30T12:29:46Z</time>
      </trkpt>
      <trkpt lat="44.60475" lon="2.562">
        <ele>706.6</ele>
        <time>2014-05-30T12:30:02Z</time>
      </trkpt>
      <trkpt lat="44.60479" lon="2.56184">
        <ele>706.9</ele>
        <time>2014-05-30T12:30:14Z</time>
      </trkpt>
      <trkpt lat="44.60484" lon="2.56151">
        <ele>710.5</ele>
        <time>2014-05-30T12:30:43Z</time>
      </trkpt>
      <trkpt lat="44.60491" lon="2.56143">
        <ele>709.6</ele>
        <time>2014-05-30T12:30:53Z</time>
      </trkpt>
      <trkpt lat="44.605" lon="2.56132">
        <ele>711.3</ele>
        <time>2014-05-30T12:31:07Z</time>
      </trkpt>
      <trkpt lat="44.60505" lon="2.56122">
        <ele>712.1</ele>
        <time>2014-05-30T12:31:16Z</time>
      </trkpt>
      <trkpt lat="44.60523" lon="2.56091">
        <ele>708.9</ele>
        <time>2014-05-30T12:32:00Z</time>
      </trkpt>
      <trkpt lat="44.60523" lon="2.56074">
        <ele>708.1</ele>
        <time>2014-05-30T12:32:13Z</time>
      </trkpt>
      <trkpt lat="44.60524" lon="2.56056">
        <ele>707.1</ele>
        <time>2014-05-30T12:32:30Z</time>
      </trkpt>
      <trkpt lat="44.60525" lon="2.56038">
        <ele>708.2</ele>
        <time>2014-05-30T12:32:43Z</time>
      </trkpt>
      <trkpt lat="44.60526" lon="2.56017">
        <ele>710</ele>
        <time>2014-05-30T12:32:56Z</time>
      </trkpt>
      <trkpt lat="44.60527" lon="2.55994">
        <ele>710.3</ele>
        <time>2014-05-30T12:33:13Z</time>
      </trkpt>
      <trkpt lat="44.60529" lon="2.55965">
        <ele>710.4</ele>
        <time>2014-05-30T12:33:32Z</time>
      </trkpt>
      <trkpt lat="44.6053" lon="2.55947">
        <ele>711</ele>
        <time>2014-05-30T12:33:45Z</time>
      </trkpt>
      <trkpt lat="44.60538" lon="2.55926">
        <ele>711.3</ele>
        <time>2014-05-30T12:33:59Z</time>
      </trkpt>
      <trkpt lat="44.60539" lon="2.55925">
        <ele>710.6</ele>
        <time>2014-05-30T12:34:07Z</time>
      </trkpt>
      <trkpt lat="44.60532" lon="2.55892">
        <ele>710.7</ele>
        <time>2014-05-30T12:37:42Z</time>
      </trkpt>
      <trkpt lat="44.60528" lon="2.55877">
        <ele>709.4</ele>
        <time>2014-05-30T12:37:53Z</time>
      </trkpt>
      <trkpt lat="44.60524" lon="2.55862">
        <ele>709.2</ele>
        <time>2014-05-30T12:38:03Z</time>
      </trkpt>
      <trkpt lat="44.60521" lon="2.55848">
        <ele>707.2</ele>
        <time>2014-05-30T12:38:14Z</time>
      </trkpt>
      <trkpt lat="44.60515" lon="2.55834">
        <ele>706.1</ele>
        <time>2014-05-30T12:38:28Z</time>
      </trkpt>
      <trkpt lat="44.60511" lon="2.55816">
        <ele>706</ele>
        <time>2014-05-30T12:38:41Z</time>
      </trkpt>
      <trkpt lat="44.60517" lon="2.55799">
        <ele>706.3</ele>
        <time>2014-05-30T12:38:54Z</time>
      </trkpt>
      <trkpt lat="44.60533" lon="2.55787">
        <ele>708.6</ele>
        <time>2014-05-30T12:39:12Z</time>
      </trkpt>
      <trkpt lat="44.60536" lon="2.55787">
        <ele>708.3</ele>
        <time>2014-05-30T12:39:14Z</time>
      </trkpt>
      <trkpt lat="44.60538" lon="2.55784">
        <ele>710.5</ele>
        <time>2014-05-30T12:39:21Z</time>
      </trkpt>
      <trkpt lat="44.6055" lon="2.55781">
        <ele>712.2</ele>
        <time>2014-05-30T12:39:34Z</time>
      </trkpt>
      <trkpt lat="44.60569" lon="2.55777">
        <ele>704.7</ele>
        <time>2014-05-30T12:39:52Z</time>
      </trkpt>
      <trkpt lat="44.60585" lon="2.55756">
        <ele>705.7</ele>
        <time>2014-05-30T12:40:13Z</time>
      </trkpt>
      <trkpt lat="44.60579" lon="2.55737">
        <ele>701.1</ele>
        <time>2014-05-30T12:40:31Z</time>
      </trkpt>
      <trkpt lat="44.60572" lon="2.55718">
        <ele>700.4</ele>
        <time>2014-05-30T12:40:43Z</time>
      </trkpt>
      <trkpt lat="44.60579" lon="2.55708">
        <ele>697.3</ele>
        <time>2014-05-30T12:40:52Z</time>
      </trkpt>
      <trkpt lat="44.60587" lon="2.55687">
        <ele>695</ele>
        <time>2014-05-30T12:41:11Z</time>
      </trkpt>
      <trkpt lat="44.60569" lon="2.55677">
        <ele>694</ele>
        <time>2014-05-30T12:41:29Z</time>
      </trkpt>
      <trkpt lat="44.60556" lon="2.55663">
        <ele>690.9</ele>
        <time>2014-05-30T12:41:46Z</time>
      </trkpt>
      <trkpt lat="44.60548" lon="2.5564">
        <ele>690.6</ele>
        <time>2014-05-30T12:42:02Z</time>
      </trkpt>
      <trkpt lat="44.60542" lon="2.55621">
        <ele>689.1</ele>
        <time>2014-05-30T12:42:16Z</time>
      </trkpt>
      <trkpt lat="44.60538" lon="2.55608">
        <ele>688.6</ele>
        <time>2014-05-30T12:42:25Z</time>
      </trkpt>
      <trkpt lat="44.60534" lon="2.55589">
        <ele>684.9</ele>
        <time>2014-05-30T12:42:42Z</time>
      </trkpt>
      <trkpt lat="44.6053" lon="2.55571">
        <ele>683.1</ele>
        <time>2014-05-30T12:42:58Z</time>
      </trkpt>
      <trkpt lat="44.60525" lon="2.55549">
        <ele>683.7</ele>
        <time>2014-05-30T12:43:13Z</time>
      </trkpt>
      <trkpt lat="44.60519" lon="2.55526">
        <ele>682</ele>
        <time>2014-05-30T12:43:30Z</time>
      </trkpt>
      <trkpt lat="44.60513" lon="2.55495">
        <ele>681.8</ele>
        <time>2014-05-30T12:43:52Z</time>
      </trkpt>
      <trkpt lat="44.6051" lon="2.55479">
        <ele>679.2</ele>
        <time>2014-05-30T12:44:04Z</time>
      </trkpt>
      <trkpt lat="44.60506" lon="2.55454">
        <ele>678.1</ele>
        <time>2014-05-30T12:44:20Z</time>
      </trkpt>
      <trkpt lat="44.60498" lon="2.55429">
        <ele>673.9</ele>
        <time>2014-05-30T12:44:38Z</time>
      </trkpt>
      <trkpt lat="44.60491" lon="2.55409">
        <ele>673.4</ele>
        <time>2014-05-30T12:44:56Z</time>
      </trkpt>
      <trkpt lat="44.60485" lon="2.55387">
        <ele>670.2</ele>
        <time>2014-05-30T12:45:12Z</time>
      </trkpt>
      <trkpt lat="44.6048" lon="2.55368">
        <ele>669</ele>
        <time>2014-05-30T12:45:25Z</time>
      </trkpt>
      <trkpt lat="44.60477" lon="2.55352">
        <ele>664.2</ele>
        <time>2014-05-30T12:45:39Z</time>
      </trkpt>
      <trkpt lat="44.60473" lon="2.5534">
        <ele>662.3</ele>
        <time>2014-05-30T12:45:49Z</time>
      </trkpt>
      <trkpt lat="44.60467" lon="2.55326">
        <ele>661.1</ele>
        <time>2014-05-30T12:46:00Z</time>
      </trkpt>
      <trkpt lat="44.6046" lon="2.55315">
        <ele>658.1</ele>
        <time>2014-05-30T12:46:09Z</time>
      </trkpt>
      <trkpt lat="44.60449" lon="2.55306">
        <ele>660.4</ele>
        <time>2014-05-30T12:46:19Z</time>
      </trkpt>
      <trkpt lat="44.60431" lon="2.55292">
        <ele>658.1</ele>
        <time>2014-05-30T12:46:38Z</time>
      </trkpt>
      <trkpt lat="44.6042" lon="2.55277">
        <ele>660.3</ele>
        <time>2014-05-30T12:46:52Z</time>
      </trkpt>
      <trkpt lat="44.60413" lon="2.55268">
        <ele>661.3</ele>
        <time>2014-05-30T12:47:01Z</time>
      </trkpt>
      <trkpt lat="44.60409" lon="2.55243">
        <ele>659.6</ele>
        <time>2014-05-30T12:47:18Z</time>
      </trkpt>
      <trkpt lat="44.60414" lon="2.55223">
        <ele>656.4</ele>
        <time>2014-05-30T12:47:32Z</time>
      </trkpt>
      <trkpt lat="44.60424" lon="2.55212">
        <ele>657.2</ele>
        <time>2014-05-30T12:47:45Z</time>
      </trkpt>
      <trkpt lat="44.60436" lon="2.55195">
        <ele>659.5</ele>
        <time>2014-05-30T12:48:04Z</time>
      </trkpt>
      <trkpt lat="44.60437" lon="2.55181">
        <ele>659.7</ele>
        <time>2014-05-30T12:48:12Z</time>
      </trkpt>
      <trkpt lat="44.6044" lon="2.5517">
        <ele>658.6</ele>
        <time>2014-05-30T12:48:20Z</time>
      </trkpt>
      <trkpt lat="44.60441" lon="2.55143">
        <ele>658.7</ele>
        <time>2014-05-30T12:48:37Z</time>
      </trkpt>
      <trkpt lat="44.60443" lon="2.55127">
        <ele>665.7</ele>
        <time>2014-05-30T12:48:53Z</time>
      </trkpt>
      <trkpt lat="44.60445" lon="2.55098">
        <ele>663.2</ele>
        <time>2014-05-30T12:49:10Z</time>
      </trkpt>
      <trkpt lat="44.60442" lon="2.55075">
        <ele>664</ele>
        <time>2014-05-30T12:49:26Z</time>
      </trkpt>
      <trkpt lat="44.60447" lon="2.55058">
        <ele>663.9</ele>
        <time>2014-05-30T12:49:41Z</time>
      </trkpt>
      <trkpt lat="44.60446" lon="2.55032">
        <ele>662.5</ele>
        <time>2014-05-30T12:49:59Z</time>
      </trkpt>
      <trkpt lat="44.6044" lon="2.55027">
        <ele>659.5</ele>
        <time>2014-05-30T12:50:04Z</time>
      </trkpt>
      <trkpt lat="44.60436" lon="2.55015">
        <ele>658.8</ele>
        <time>2014-05-30T12:50:19Z</time>
      </trkpt>
      <trkpt lat="44.60424" lon="2.55005">
        <ele>655</ele>
        <time>2014-05-30T12:50:34Z</time>
      </trkpt>
      <trkpt lat="44.60415" lon="2.54995">
        <ele>655</ele>
        <time>2014-05-30T12:50:45Z</time>
      </trkpt>
      <trkpt lat="44.60396" lon="2.54983">
        <ele>658.1</ele>
        <time>2014-05-30T12:51:03Z</time>
      </trkpt>
      <trkpt lat="44.6038" lon="2.54976">
        <ele>661</ele>
        <time>2014-05-30T12:51:17Z</time>
      </trkpt>
      <trkpt lat="44.60368" lon="2.54973">
        <ele>658.8</ele>
        <time>2014-05-30T12:51:28Z</time>
      </trkpt>
      <trkpt lat="44.6035" lon="2.54964">
        <ele>658.7</ele>
        <time>2014-05-30T12:51:45Z</time>
      </trkpt>
      <trkpt lat="44.60343" lon="2.54948">
        <ele>660.8</ele>
        <time>2014-05-30T12:52:00Z</time>
      </trkpt>
      <trkpt lat="44.60338" lon="2.54933">
        <ele>659</ele>
        <time>2014-05-30T12:52:14Z</time>
      </trkpt>
      <trkpt lat="44.60335" lon="2.54917">
        <ele>659</ele>
        <time>2014-05-30T12:52:25Z</time>
      </trkpt>
      <trkpt lat="44.60333" lon="2.54894">
        <ele>661.6</ele>
        <time>2014-05-30T12:52:38Z</time>
      </trkpt>
      <trkpt lat="44.60333" lon="2.54879">
        <ele>660.3</ele>
        <time>2014-05-30T12:52:50Z</time>
      </trkpt>
      <trkpt lat="44.60323" lon="2.54839">
        <ele>661.1</ele>
        <time>2014-05-30T12:53:19Z</time>
      </trkpt>
      <trkpt lat="44.60318" lon="2.54824">
        <ele>657</ele>
        <time>2014-05-30T12:53:27Z</time>
      </trkpt>
      <trkpt lat="44.60313" lon="2.54801">
        <ele>656.2</ele>
        <time>2014-05-30T12:53:43Z</time>
      </trkpt>
      <trkpt lat="44.60308" lon="2.54787">
        <ele>655.7</ele>
        <time>2014-05-30T12:53:55Z</time>
      </trkpt>
      <trkpt lat="44.60303" lon="2.54768">
        <ele>651.9</ele>
        <time>2014-05-30T12:54:10Z</time>
      </trkpt>
      <trkpt lat="44.60296" lon="2.54749">
        <ele>654.4</ele>
        <time>2014-05-30T12:54:24Z</time>
      </trkpt>
      <trkpt lat="44.60289" lon="2.54723">
        <ele>653.7</ele>
        <time>2014-05-30T12:54:41Z</time>
      </trkpt>
      <trkpt lat="44.60283" lon="2.54705">
        <ele>652.7</ele>
        <time>2014-05-30T12:54:56Z</time>
      </trkpt>
      <trkpt lat="44.6028" lon="2.54685">
        <ele>651</ele>
        <time>2014-05-30T12:55:14Z</time>
      </trkpt>
      <trkpt lat="44.60272" lon="2.54667">
        <ele>645.8</ele>
        <time>2014-05-30T12:55:31Z</time>
      </trkpt>
      <trkpt lat="44.60263" lon="2.54654">
        <ele>648.3</ele>
        <time>2014-05-30T12:55:41Z</time>
      </trkpt>
      <trkpt lat="44.60258" lon="2.54641">
        <ele>648.2</ele>
        <time>2014-05-30T12:55:51Z</time>
      </trkpt>
      <trkpt lat="44.60246" lon="2.54619">
        <ele>648.5</ele>
        <time>2014-05-30T12:56:05Z</time>
      </trkpt>
      <trkpt lat="44.60238" lon="2.54615">
        <ele>647.5</ele>
        <time>2014-05-30T12:56:13Z</time>
      </trkpt>
      <trkpt lat="44.60223" lon="2.54598">
        <ele>649</ele>
        <time>2014-05-30T12:56:30Z</time>
      </trkpt>
      <trkpt lat="44.60205" lon="2.54592">
        <ele>653.1</ele>
        <time>2014-05-30T12:56:45Z</time>
      </trkpt>
      <trkpt lat="44.60195" lon="2.5459">
        <ele>655.7</ele>
        <time>2014-05-30T12:56:55Z</time>
      </trkpt>
      <trkpt lat="44.6019" lon="2.54595">
        <ele>656.5</ele>
        <time>2014-05-30T12:57:08Z</time>
      </trkpt>
      <trkpt lat="44.60174" lon="2.54605">
        <ele>653.5</ele>
        <time>2014-05-30T12:57:25Z</time>
      </trkpt>
      <trkpt lat="44.6016" lon="2.54601">
        <ele>655.6</ele>
        <time>2014-05-30T12:57:43Z</time>
      </trkpt>
      <trkpt lat="44.60147" lon="2.54585">
        <ele>655.1</ele>
        <time>2014-05-30T12:57:57Z</time>
      </trkpt>
      <trkpt lat="44.60136" lon="2.5458">
        <ele>650.8</ele>
        <time>2014-05-30T12:58:10Z</time>
      </trkpt>
      <trkpt lat="44.60122" lon="2.5457">
        <ele>654.9</ele>
        <time>2014-05-30T12:58:27Z</time>
      </trkpt>
      <trkpt lat="44.60113" lon="2.54566">
        <ele>656.1</ele>
        <time>2014-05-30T12:58:37Z</time>
      </trkpt>
      <trkpt lat="44.60102" lon="2.54553">
        <ele>653.5</ele>
        <time>2014-05-30T12:58:51Z</time>
      </trkpt>
      <trkpt lat="44.60098" lon="2.54525">
        <ele>655.3</ele>
        <time>2014-05-30T12:59:07Z</time>
      </trkpt>
      <trkpt lat="44.60098" lon="2.54525">
        <ele>655.3</ele>
        <time>2014-05-30T12:59:15Z</time>
      </trkpt>
      <trkpt lat="44.60098" lon="2.54525">
        <ele>655.3</ele>
        <time>2014-05-30T12:59:16Z</time>
      </trkpt>
      <trkpt lat="44.60102" lon="2.54503">
        <ele>656.3</ele>
        <time>2014-05-30T12:59:26Z</time>
      </trkpt>
      <trkpt lat="44.60105" lon="2.54482">
        <ele>657.2</ele>
        <time>2014-05-30T12:59:40Z</time>
      </trkpt>
      <trkpt lat="44.60104" lon="2.54469">
        <ele>654.7</ele>
        <time>2014-05-30T12:59:53Z</time>
      </trkpt>
      <trkpt lat="44.60106" lon="2.54442">
        <ele>658.4</ele>
        <time>2014-05-30T13:00:07Z</time>
      </trkpt>
      <trkpt lat="44.60106" lon="2.54442">
        <ele>658.4</ele>
        <time>2014-05-30T13:00:12Z</time>
      </trkpt>
      <trkpt lat="44.60106" lon="2.54442">
        <ele>658.4</ele>
        <time>2014-05-30T13:00:13Z</time>
      </trkpt>
      <trkpt lat="44.60108" lon="2.5442">
        <ele>661.5</ele>
        <time>2014-05-30T13:00:25Z</time>
      </trkpt>
      <trkpt lat="44.60106" lon="2.54397">
        <ele>664.4</ele>
        <time>2014-05-30T13:00:44Z</time>
      </trkpt>
      <trkpt lat="44.60111" lon="2.54372">
        <ele>665.4</ele>
        <time>2014-05-30T13:01:01Z</time>
      </trkpt>
      <trkpt lat="44.60109" lon="2.54344">
        <ele>668.5</ele>
        <time>2014-05-30T13:01:18Z</time>
      </trkpt>
      <trkpt lat="44.60111" lon="2.54318">
        <ele>669.9</ele>
        <time>2014-05-30T13:01:38Z</time>
      </trkpt>
      <trkpt lat="44.60111" lon="2.54298">
        <ele>671.8</ele>
        <time>2014-05-30T13:01:52Z</time>
      </trkpt>
      <trkpt lat="44.60108" lon="2.54278">
        <ele>672</ele>
        <time>2014-05-30T13:02:05Z</time>
      </trkpt>
      <trkpt lat="44.60103" lon="2.54253">
        <ele>672.8</ele>
        <time>2014-05-30T13:02:22Z</time>
      </trkpt>
      <trkpt lat="44.60101" lon="2.54225">
        <ele>674.4</ele>
        <time>2014-05-30T13:02:40Z</time>
      </trkpt>
      <trkpt lat="44.60096" lon="2.54196">
        <ele>673.9</ele>
        <time>2014-05-30T13:02:58Z</time>
      </trkpt>
      <trkpt lat="44.60093" lon="2.54181">
        <ele>674.3</ele>
        <time>2014-05-30T13:03:08Z</time>
      </trkpt>
      <trkpt lat="44.60088" lon="2.54153">
        <ele>676.6</ele>
        <time>2014-05-30T13:03:26Z</time>
      </trkpt>
      <trkpt lat="44.60082" lon="2.5413">
        <ele>675.5</ele>
        <time>2014-05-30T13:03:41Z</time>
      </trkpt>
      <trkpt lat="44.60078" lon="2.54104">
        <ele>672.2</ele>
        <time>2014-05-30T13:04:00Z</time>
      </trkpt>
      <trkpt lat="44.60078" lon="2.54074">
        <ele>675.9</ele>
        <time>2014-05-30T13:04:22Z</time>
      </trkpt>
      <trkpt lat="44.60077" lon="2.5405">
        <ele>676.9</ele>
        <time>2014-05-30T13:04:38Z</time>
      </trkpt>
      <trkpt lat="44.60076" lon="2.5402">
        <ele>682.2</ele>
        <time>2014-05-30T13:04:56Z</time>
      </trkpt>
      <trkpt lat="44.60073" lon="2.53998">
        <ele>683.2</ele>
        <time>2014-05-30T13:05:11Z</time>
      </trkpt>
      <trkpt lat="44.60066" lon="2.53975">
        <ele>685.5</ele>
        <time>2014-05-30T13:05:26Z</time>
      </trkpt>
      <trkpt lat="44.60065" lon="2.53971">
        <ele>685.9</ele>
        <time>2014-05-30T13:05:40Z</time>
      </trkpt>
      <trkpt lat="44.60047" lon="2.5394">
        <ele>687.8</ele>
        <time>2014-05-30T13:06:33Z</time>
      </trkpt>
      <trkpt lat="44.60043" lon="2.53933">
        <ele>688.4</ele>
        <time>2014-05-30T13:06:40Z</time>
      </trkpt>
      <trkpt lat="44.60032" lon="2.53913">
        <ele>691.1</ele>
        <time>2014-05-30T13:06:58Z</time>
      </trkpt>
      <trkpt lat="44.60022" lon="2.53895">
        <ele>689.8</ele>
        <time>2014-05-30T13:07:12Z</time>
      </trkpt>
      <trkpt lat="44.60012" lon="2.53871">
        <ele>691.5</ele>
        <time>2014-05-30T13:07:31Z</time>
      </trkpt>
      <trkpt lat="44.6" lon="2.53846">
        <ele>690.5</ele>
        <time>2014-05-30T13:07:52Z</time>
      </trkpt>
      <trkpt lat="44.59991" lon="2.53821">
        <ele>693.8</ele>
        <time>2014-05-30T13:08:10Z</time>
      </trkpt>
      <trkpt lat="44.59984" lon="2.53799">
        <ele>695.5</ele>
        <time>2014-05-30T13:08:26Z</time>
      </trkpt>
      <trkpt lat="44.5997" lon="2.53771">
        <ele>696.1</ele>
        <time>2014-05-30T13:08:47Z</time>
      </trkpt>
      <trkpt lat="44.59963" lon="2.53749">
        <ele>697.8</ele>
        <time>2014-05-30T13:09:02Z</time>
      </trkpt>
      <trkpt lat="44.59951" lon="2.53739">
        <ele>698.8</ele>
        <time>2014-05-30T13:09:16Z</time>
      </trkpt>
      <trkpt lat="44.59951" lon="2.53739">
        <ele>698.8</ele>
        <time>2014-05-30T13:09:23Z</time>
      </trkpt>
      <trkpt lat="44.59951" lon="2.53739">
        <ele>698.8</ele>
        <time>2014-05-30T13:09:24Z</time>
      </trkpt>
      <trkpt lat="44.59933" lon="2.53763">
        <ele>698.6</ele>
        <time>2014-05-30T13:12:42Z</time>
      </trkpt>
      <trkpt lat="44.59923" lon="2.53779">
        <ele>697.4</ele>
        <time>2014-05-30T13:12:58Z</time>
      </trkpt>
      <trkpt lat="44.59911" lon="2.53797">
        <ele>697.4</ele>
        <time>2014-05-30T13:13:16Z</time>
      </trkpt>
      <trkpt lat="44.59908" lon="2.53802">
        <ele>696.9</ele>
        <time>2014-05-30T13:13:23Z</time>
      </trkpt>
      <trkpt lat="44.59908" lon="2.53802">
        <ele>697</ele>
        <time>2014-05-30T13:13:31Z</time>
      </trkpt>
      <trkpt lat="44.59891" lon="2.53826">
        <ele>697.1</ele>
        <time>2014-05-30T13:13:58Z</time>
      </trkpt>
      <trkpt lat="44.5988" lon="2.53846">
        <ele>695.6</ele>
        <time>2014-05-30T13:14:18Z</time>
      </trkpt>
      <trkpt lat="44.59871" lon="2.53861">
        <ele>696.3</ele>
        <time>2014-05-30T13:14:35Z</time>
      </trkpt>
      <trkpt lat="44.5986" lon="2.53881">
        <ele>695.6</ele>
        <time>2014-05-30T13:14:52Z</time>
      </trkpt>
      <trkpt lat="44.59848" lon="2.53897">
        <ele>694.8</ele>
        <time>2014-05-30T13:15:09Z</time>
      </trkpt>
      <trkpt lat="44.59837" lon="2.53912">
        <ele>694.4</ele>
        <time>2014-05-30T13:15:25Z</time>
      </trkpt>
      <trkpt lat="44.59828" lon="2.53924">
        <ele>693.3</ele>
        <time>2014-05-30T13:15:39Z</time>
      </trkpt>
      <trkpt lat="44.59815" lon="2.53937">
        <ele>693.5</ele>
        <time>2014-05-30T13:15:56Z</time>
      </trkpt>
      <trkpt lat="44.59804" lon="2.53954">
        <ele>693.6</ele>
        <time>2014-05-30T13:16:14Z</time>
      </trkpt>
      <trkpt lat="44.59791" lon="2.53972">
        <ele>693.6</ele>
        <time>2014-05-30T13:16:32Z</time>
      </trkpt>
      <trkpt lat="44.59778" lon="2.53991">
        <ele>693.1</ele>
        <time>2014-05-30T13:16:51Z</time>
      </trkpt>
      <trkpt lat="44.5977" lon="2.54004">
        <ele>691.6</ele>
        <time>2014-05-30T13:17:04Z</time>
      </trkpt>
      <trkpt lat="44.59759" lon="2.54022">
        <ele>689.1</ele>
        <time>2014-05-30T13:17:22Z</time>
      </trkpt>
      <trkpt lat="44.59747" lon="2.54041">
        <ele>687.4</ele>
        <time>2014-05-30T13:17:40Z</time>
      </trkpt>
      <trkpt lat="44.59736" lon="2.54056">
        <ele>686.1</ele>
        <time>2014-05-30T13:17:54Z</time>
      </trkpt>
      <trkpt lat="44.59729" lon="2.54067">
        <ele>686.2</ele>
        <time>2014-05-30T13:18:03Z</time>
      </trkpt>
      <trkpt lat="44.59719" lon="2.54085">
        <ele>685.1</ele>
        <time>2014-05-30T13:18:19Z</time>
      </trkpt>
      <trkpt lat="44.59706" lon="2.54104">
        <ele>683.1</ele>
        <time>2014-05-30T13:18:38Z</time>
      </trkpt>
      <trkpt lat="44.59696" lon="2.54126">
        <ele>682.3</ele>
        <time>2014-05-30T13:18:56Z</time>
      </trkpt>
      <trkpt lat="44.59685" lon="2.5415">
        <ele>687.7</ele>
        <time>2014-05-30T13:19:14Z</time>
      </trkpt>
      <trkpt lat="44.59678" lon="2.5417">
        <ele>687.1</ele>
        <time>2014-05-30T13:19:31Z</time>
      </trkpt>
      <trkpt lat="44.59674" lon="2.54183">
        <ele>688.2</ele>
        <time>2014-05-30T13:19:43Z</time>
      </trkpt>
      <trkpt lat="44.5966" lon="2.54207">
        <ele>687.8</ele>
        <time>2014-05-30T13:20:05Z</time>
      </trkpt>
      <trkpt lat="44.5966" lon="2.54207">
        <ele>629</ele>
        <time>2014-05-30T13:21:11Z</time>
      </trkpt>
      <trkpt lat="44.5966" lon="2.54207">
        <ele>629</ele>
        <time>2014-05-30T13:21:12Z</time>
      </trkpt>
    </trkseg>
  </trk>
</gpx>